<?xml version="1.0" encoding="UTF-8" standalone="no" ?>
<gpx xmlns="http://www.topografix.com/GPX/1/1" xmlns:xsi="http://www.w3.org/2001/XMLSchema-instance" xsi:schemaLocation="http://www.topografix.com/GPX/1/1 http://www.topografix.com/GPX/1/1/gpx.xsd" version="1.1" creator="VisuGPX - https://www.visugpx.com">
  <metadata>
    <name>St hilaire </name>
    <desc><![CDATA[

]]></desc>
  </metadata>
  <trk>
    <name><![CDATA[St hilaire ]]></name>
    <extensions>
      <line xmlns="http://www.topografix.com/GPX/gpx_style/0/2">
        <color>0000FF</color>
        <width>4</width>
      </line>
    </extensions>
    <trkseg>
      <trkpt lat="45.31365" lon="5.88487">
        <ele>962.44702148438</ele>
        <time>2017-01-15T08:12:46Z</time>
      </trkpt>
      <trkpt lat="45.3137" lon="5.88496">
        <ele>964.44702148438</ele>
        <time>2017-01-15T08:12:49Z</time>
      </trkpt>
      <trkpt lat="45.31367" lon="5.88486">
        <ele>977.44702148438</ele>
        <time>2017-01-15T08:13:40Z</time>
      </trkpt>
      <trkpt lat="45.31369" lon="5.88476">
        <ele>977.44702148438</ele>
        <time>2017-01-15T08:13:46Z</time>
      </trkpt>
      <trkpt lat="45.31369" lon="5.88486">
        <ele>978.44702148438</ele>
        <time>2017-01-15T08:14:19Z</time>
      </trkpt>
      <trkpt lat="45.31369" lon="5.88476">
        <ele>978.44702148438</ele>
        <time>2017-01-15T08:14:38Z</time>
      </trkpt>
      <trkpt lat="45.31371" lon="5.88466">
        <ele>978.44702148438</ele>
        <time>2017-01-15T08:14:43Z</time>
      </trkpt>
      <trkpt lat="45.31373" lon="5.88454">
        <ele>979.44702148438</ele>
        <time>2017-01-15T08:14:51Z</time>
      </trkpt>
      <trkpt lat="45.31375" lon="5.88443">
        <ele>981.44702148438</ele>
        <time>2017-01-15T08:14:58Z</time>
      </trkpt>
      <trkpt lat="45.31376" lon="5.88431">
        <ele>980.44702148438</ele>
        <time>2017-01-15T08:15:05Z</time>
      </trkpt>
      <trkpt lat="45.31377" lon="5.8842">
        <ele>981.44702148438</ele>
        <time>2017-01-15T08:15:12Z</time>
      </trkpt>
      <trkpt lat="45.31378" lon="5.8841">
        <ele>982.44702148438</ele>
        <time>2017-01-15T08:15:18Z</time>
      </trkpt>
      <trkpt lat="45.3138" lon="5.88399">
        <ele>985.44702148438</ele>
        <time>2017-01-15T08:15:24Z</time>
      </trkpt>
      <trkpt lat="45.31384" lon="5.88389">
        <ele>989.44702148438</ele>
        <time>2017-01-15T08:15:32Z</time>
      </trkpt>
      <trkpt lat="45.31388" lon="5.8838">
        <ele>991.44702148438</ele>
        <time>2017-01-15T08:15:41Z</time>
      </trkpt>
      <trkpt lat="45.31388" lon="5.88369">
        <ele>993.44702148438</ele>
        <time>2017-01-15T08:15:48Z</time>
      </trkpt>
      <trkpt lat="45.3139" lon="5.88359">
        <ele>996.44702148438</ele>
        <time>2017-01-15T08:15:59Z</time>
      </trkpt>
      <trkpt lat="45.31391" lon="5.88348">
        <ele>999.44702148438</ele>
        <time>2017-01-15T08:16:06Z</time>
      </trkpt>
      <trkpt lat="45.31394" lon="5.88338">
        <ele>1001.4470214844</ele>
        <time>2017-01-15T08:16:12Z</time>
      </trkpt>
      <trkpt lat="45.31395" lon="5.88327">
        <ele>1005.4470214844</ele>
        <time>2017-01-15T08:16:20Z</time>
      </trkpt>
      <trkpt lat="45.31397" lon="5.88317">
        <ele>1006.4470214844</ele>
        <time>2017-01-15T08:16:28Z</time>
      </trkpt>
      <trkpt lat="45.31399" lon="5.88306">
        <ele>1009.4470214844</ele>
        <time>2017-01-15T08:16:37Z</time>
      </trkpt>
      <trkpt lat="45.314" lon="5.88295">
        <ele>1014.4470214844</ele>
        <time>2017-01-15T08:16:44Z</time>
      </trkpt>
      <trkpt lat="45.31401" lon="5.88284">
        <ele>1017.4470214844</ele>
        <time>2017-01-15T08:16:56Z</time>
      </trkpt>
      <trkpt lat="45.31403" lon="5.88273">
        <ele>1019.4470214844</ele>
        <time>2017-01-15T08:17:09Z</time>
      </trkpt>
      <trkpt lat="45.31406" lon="5.88264">
        <ele>1023.4470214844</ele>
        <time>2017-01-15T08:17:16Z</time>
      </trkpt>
      <trkpt lat="45.31408" lon="5.88253">
        <ele>1026.4470214844</ele>
        <time>2017-01-15T08:17:25Z</time>
      </trkpt>
      <trkpt lat="45.31412" lon="5.88244">
        <ele>1029.4470214844</ele>
        <time>2017-01-15T08:17:34Z</time>
      </trkpt>
      <trkpt lat="45.31414" lon="5.88233">
        <ele>1031.4470214844</ele>
        <time>2017-01-15T08:17:42Z</time>
      </trkpt>
      <trkpt lat="45.31415" lon="5.88222">
        <ele>1030.4470214844</ele>
        <time>2017-01-15T08:17:50Z</time>
      </trkpt>
      <trkpt lat="45.31416" lon="5.88212">
        <ele>1033.4470214844</ele>
        <time>2017-01-15T08:18:02Z</time>
      </trkpt>
      <trkpt lat="45.31416" lon="5.88201">
        <ele>1034.4470214844</ele>
        <time>2017-01-15T08:18:11Z</time>
      </trkpt>
      <trkpt lat="45.31418" lon="5.88191">
        <ele>1035.4470214844</ele>
        <time>2017-01-15T08:18:20Z</time>
      </trkpt>
      <trkpt lat="45.31418" lon="5.8818">
        <ele>1040.4470214844</ele>
        <time>2017-01-15T08:18:27Z</time>
      </trkpt>
      <trkpt lat="45.31418" lon="5.88168">
        <ele>1045.4470214844</ele>
        <time>2017-01-15T08:18:38Z</time>
      </trkpt>
      <trkpt lat="45.31417" lon="5.88158">
        <ele>1043.4470214844</ele>
        <time>2017-01-15T08:18:45Z</time>
      </trkpt>
      <trkpt lat="45.31416" lon="5.88148">
        <ele>1050.4470214844</ele>
        <time>2017-01-15T08:18:55Z</time>
      </trkpt>
      <trkpt lat="45.31415" lon="5.88138">
        <ele>1061.4470214844</ele>
        <time>2017-01-15T08:19:07Z</time>
      </trkpt>
      <trkpt lat="45.31413" lon="5.88126">
        <ele>1064.4470214844</ele>
        <time>2017-01-15T08:19:20Z</time>
      </trkpt>
      <trkpt lat="45.31412" lon="5.88115">
        <ele>1072.4470214844</ele>
        <time>2017-01-15T08:19:32Z</time>
      </trkpt>
      <trkpt lat="45.31409" lon="5.88106">
        <ele>1075.4470214844</ele>
        <time>2017-01-15T08:19:43Z</time>
      </trkpt>
      <trkpt lat="45.31405" lon="5.88096">
        <ele>1079.4470214844</ele>
        <time>2017-01-15T08:19:59Z</time>
      </trkpt>
      <trkpt lat="45.31401" lon="5.88086">
        <ele>1081.4470214844</ele>
        <time>2017-01-15T08:20:08Z</time>
      </trkpt>
      <trkpt lat="45.31399" lon="5.88076">
        <ele>1088.4470214844</ele>
        <time>2017-01-15T08:20:17Z</time>
      </trkpt>
      <trkpt lat="45.31395" lon="5.88066">
        <ele>1093.4470214844</ele>
        <time>2017-01-15T08:20:26Z</time>
      </trkpt>
      <trkpt lat="45.31389" lon="5.88057">
        <ele>1093.4470214844</ele>
        <time>2017-01-15T08:20:39Z</time>
      </trkpt>
      <trkpt lat="45.31388" lon="5.88046">
        <ele>1097.4470214844</ele>
        <time>2017-01-15T08:20:47Z</time>
      </trkpt>
      <trkpt lat="45.31383" lon="5.88037">
        <ele>1101.4470214844</ele>
        <time>2017-01-15T08:20:56Z</time>
      </trkpt>
      <trkpt lat="45.31377" lon="5.88029">
        <ele>1106.4470214844</ele>
        <time>2017-01-15T08:21:09Z</time>
      </trkpt>
      <trkpt lat="45.31374" lon="5.88019">
        <ele>1109.4470214844</ele>
        <time>2017-01-15T08:21:17Z</time>
      </trkpt>
      <trkpt lat="45.31372" lon="5.88008">
        <ele>1118.4470214844</ele>
        <time>2017-01-15T08:21:30Z</time>
      </trkpt>
      <trkpt lat="45.3137" lon="5.87997">
        <ele>1120.4470214844</ele>
        <time>2017-01-15T08:21:39Z</time>
      </trkpt>
      <trkpt lat="45.31378" lon="5.87995">
        <ele>1118.4470214844</ele>
        <time>2017-01-15T08:21:51Z</time>
      </trkpt>
      <trkpt lat="45.31376" lon="5.87985">
        <ele>1115.4470214844</ele>
        <time>2017-01-15T08:24:55Z</time>
      </trkpt>
      <trkpt lat="45.31374" lon="5.87975">
        <ele>1115.4470214844</ele>
        <time>2017-01-15T08:24:59Z</time>
      </trkpt>
      <trkpt lat="45.31374" lon="5.87963">
        <ele>1115.4470214844</ele>
        <time>2017-01-15T08:25:10Z</time>
      </trkpt>
      <trkpt lat="45.31373" lon="5.87952">
        <ele>1121.4470214844</ele>
        <time>2017-01-15T08:25:18Z</time>
      </trkpt>
      <trkpt lat="45.31374" lon="5.87941">
        <ele>1127.4470214844</ele>
        <time>2017-01-15T08:25:25Z</time>
      </trkpt>
      <trkpt lat="45.31375" lon="5.87929">
        <ele>1127.4470214844</ele>
        <time>2017-01-15T08:25:41Z</time>
      </trkpt>
      <trkpt lat="45.31377" lon="5.87917">
        <ele>1135.4470214844</ele>
        <time>2017-01-15T08:25:51Z</time>
      </trkpt>
      <trkpt lat="45.31379" lon="5.87907">
        <ele>1137.4470214844</ele>
        <time>2017-01-15T08:26:02Z</time>
      </trkpt>
      <trkpt lat="45.31376" lon="5.87897">
        <ele>1140.4460449219</ele>
        <time>2017-01-15T08:26:15Z</time>
      </trkpt>
      <trkpt lat="45.31373" lon="5.87886">
        <ele>1144.4460449219</ele>
        <time>2017-01-15T08:26:26Z</time>
      </trkpt>
      <trkpt lat="45.3137" lon="5.87876">
        <ele>1146.4460449219</ele>
        <time>2017-01-15T08:26:35Z</time>
      </trkpt>
      <trkpt lat="45.31368" lon="5.87866">
        <ele>1149.4460449219</ele>
        <time>2017-01-15T08:26:43Z</time>
      </trkpt>
      <trkpt lat="45.31369" lon="5.87855">
        <ele>1151.4460449219</ele>
        <time>2017-01-15T08:26:54Z</time>
      </trkpt>
      <trkpt lat="45.31368" lon="5.87845">
        <ele>1154.4460449219</ele>
        <time>2017-01-15T08:27:01Z</time>
      </trkpt>
      <trkpt lat="45.31367" lon="5.87834">
        <ele>1157.4460449219</ele>
        <time>2017-01-15T08:27:12Z</time>
      </trkpt>
      <trkpt lat="45.31365" lon="5.87824">
        <ele>1160.4460449219</ele>
        <time>2017-01-15T08:27:20Z</time>
      </trkpt>
      <trkpt lat="45.31365" lon="5.87812">
        <ele>1163.4460449219</ele>
        <time>2017-01-15T08:27:33Z</time>
      </trkpt>
      <trkpt lat="45.31364" lon="5.87802">
        <ele>1165.4460449219</ele>
        <time>2017-01-15T08:27:41Z</time>
      </trkpt>
      <trkpt lat="45.31363" lon="5.8779">
        <ele>1168.4460449219</ele>
        <time>2017-01-15T08:27:51Z</time>
      </trkpt>
      <trkpt lat="45.31363" lon="5.87779">
        <ele>1170.4460449219</ele>
        <time>2017-01-15T08:28:09Z</time>
      </trkpt>
      <trkpt lat="45.31362" lon="5.87769">
        <ele>1171.4460449219</ele>
        <time>2017-01-15T08:28:15Z</time>
      </trkpt>
      <trkpt lat="45.31361" lon="5.87758">
        <ele>1170.4460449219</ele>
        <time>2017-01-15T08:28:21Z</time>
      </trkpt>
      <trkpt lat="45.31363" lon="5.87747">
        <ele>1172.4460449219</ele>
        <time>2017-01-15T08:28:30Z</time>
      </trkpt>
      <trkpt lat="45.31362" lon="5.87735">
        <ele>1174.4460449219</ele>
        <time>2017-01-15T08:28:39Z</time>
      </trkpt>
      <trkpt lat="45.31359" lon="5.87725">
        <ele>1178.4460449219</ele>
        <time>2017-01-15T08:28:45Z</time>
      </trkpt>
      <trkpt lat="45.3136" lon="5.87714">
        <ele>1180.4460449219</ele>
        <time>2017-01-15T08:28:57Z</time>
      </trkpt>
      <trkpt lat="45.31358" lon="5.87703">
        <ele>1180.4460449219</ele>
        <time>2017-01-15T08:29:08Z</time>
      </trkpt>
      <trkpt lat="45.31352" lon="5.87694">
        <ele>1181.4460449219</ele>
        <time>2017-01-15T08:29:16Z</time>
      </trkpt>
      <trkpt lat="45.31353" lon="5.87684">
        <ele>1182.4460449219</ele>
        <time>2017-01-15T08:29:30Z</time>
      </trkpt>
      <trkpt lat="45.31359" lon="5.87666">
        <ele>1188.4460449219</ele>
        <time>2017-01-15T08:29:42Z</time>
      </trkpt>
      <trkpt lat="45.31357" lon="5.87655">
        <ele>1192.4460449219</ele>
        <time>2017-01-15T08:29:50Z</time>
      </trkpt>
      <trkpt lat="45.3136" lon="5.87644">
        <ele>1201.4460449219</ele>
        <time>2017-01-15T08:30:02Z</time>
      </trkpt>
      <trkpt lat="45.31368" lon="5.87639">
        <ele>1206.4460449219</ele>
        <time>2017-01-15T08:30:08Z</time>
      </trkpt>
      <trkpt lat="45.31371" lon="5.87629">
        <ele>1211.4460449219</ele>
        <time>2017-01-15T08:30:18Z</time>
      </trkpt>
      <trkpt lat="45.31373" lon="5.87619">
        <ele>1216.4460449219</ele>
        <time>2017-01-15T08:30:28Z</time>
      </trkpt>
      <trkpt lat="45.31372" lon="5.87608">
        <ele>1216.4460449219</ele>
        <time>2017-01-15T08:30:38Z</time>
      </trkpt>
      <trkpt lat="45.31375" lon="5.87598">
        <ele>1215.4460449219</ele>
        <time>2017-01-15T08:30:48Z</time>
      </trkpt>
      <trkpt lat="45.31376" lon="5.87588">
        <ele>1217.4460449219</ele>
        <time>2017-01-15T08:30:58Z</time>
      </trkpt>
      <trkpt lat="45.31371" lon="5.87579">
        <ele>1221.4460449219</ele>
        <time>2017-01-15T08:31:07Z</time>
      </trkpt>
      <trkpt lat="45.31366" lon="5.87572">
        <ele>1224.4460449219</ele>
        <time>2017-01-15T08:31:17Z</time>
      </trkpt>
      <trkpt lat="45.31361" lon="5.87564">
        <ele>1230.4460449219</ele>
        <time>2017-01-15T08:31:24Z</time>
      </trkpt>
      <trkpt lat="45.31354" lon="5.87556">
        <ele>1233.4460449219</ele>
        <time>2017-01-15T08:31:32Z</time>
      </trkpt>
      <trkpt lat="45.31348" lon="5.87549">
        <ele>1237.4460449219</ele>
        <time>2017-01-15T08:31:43Z</time>
      </trkpt>
      <trkpt lat="45.31347" lon="5.87539">
        <ele>1238.4460449219</ele>
        <time>2017-01-15T08:31:53Z</time>
      </trkpt>
      <trkpt lat="45.31342" lon="5.87532">
        <ele>1240.4460449219</ele>
        <time>2017-01-15T08:32:07Z</time>
      </trkpt>
      <trkpt lat="45.31336" lon="5.87525">
        <ele>1246.4460449219</ele>
        <time>2017-01-15T08:32:24Z</time>
      </trkpt>
      <trkpt lat="45.31332" lon="5.87516">
        <ele>1249.4460449219</ele>
        <time>2017-01-15T08:32:35Z</time>
      </trkpt>
      <trkpt lat="45.31335" lon="5.87506">
        <ele>1253.4460449219</ele>
        <time>2017-01-15T08:32:58Z</time>
      </trkpt>
      <trkpt lat="45.31339" lon="5.87497">
        <ele>1256.4460449219</ele>
        <time>2017-01-15T08:33:12Z</time>
      </trkpt>
      <trkpt lat="45.31334" lon="5.87486">
        <ele>1259.4460449219</ele>
        <time>2017-01-15T08:33:24Z</time>
      </trkpt>
      <trkpt lat="45.31332" lon="5.87476">
        <ele>1261.4460449219</ele>
        <time>2017-01-15T08:33:33Z</time>
      </trkpt>
      <trkpt lat="45.3133" lon="5.87466">
        <ele>1265.4460449219</ele>
        <time>2017-01-15T08:33:44Z</time>
      </trkpt>
      <trkpt lat="45.31331" lon="5.87455">
        <ele>1265.4460449219</ele>
        <time>2017-01-15T08:33:56Z</time>
      </trkpt>
      <trkpt lat="45.31329" lon="5.87444">
        <ele>1268.4460449219</ele>
        <time>2017-01-15T08:34:11Z</time>
      </trkpt>
      <trkpt lat="45.31328" lon="5.87432">
        <ele>1272.4460449219</ele>
        <time>2017-01-15T08:34:22Z</time>
      </trkpt>
      <trkpt lat="45.31324" lon="5.87423">
        <ele>1274.4460449219</ele>
        <time>2017-01-15T08:34:32Z</time>
      </trkpt>
      <trkpt lat="45.31321" lon="5.87413">
        <ele>1276.4460449219</ele>
        <time>2017-01-15T08:34:41Z</time>
      </trkpt>
      <trkpt lat="45.3132" lon="5.87402">
        <ele>1276.4460449219</ele>
        <time>2017-01-15T08:34:48Z</time>
      </trkpt>
      <trkpt lat="45.31321" lon="5.87392">
        <ele>1282.4460449219</ele>
        <time>2017-01-15T08:34:57Z</time>
      </trkpt>
      <trkpt lat="45.31324" lon="5.87381">
        <ele>1284.4460449219</ele>
        <time>2017-01-15T08:35:03Z</time>
      </trkpt>
      <trkpt lat="45.31325" lon="5.87369">
        <ele>1287.4460449219</ele>
        <time>2017-01-15T08:35:10Z</time>
      </trkpt>
      <trkpt lat="45.31326" lon="5.87357">
        <ele>1288.4460449219</ele>
        <time>2017-01-15T08:35:15Z</time>
      </trkpt>
      <trkpt lat="45.31326" lon="5.87345">
        <ele>1289.4460449219</ele>
        <time>2017-01-15T08:35:20Z</time>
      </trkpt>
      <trkpt lat="45.31329" lon="5.87335">
        <ele>1291.4460449219</ele>
        <time>2017-01-15T08:35:25Z</time>
      </trkpt>
      <trkpt lat="45.31332" lon="5.87325">
        <ele>1292.4460449219</ele>
        <time>2017-01-15T08:35:31Z</time>
      </trkpt>
      <trkpt lat="45.31334" lon="5.87314">
        <ele>1290.4460449219</ele>
        <time>2017-01-15T08:35:38Z</time>
      </trkpt>
      <trkpt lat="45.31335" lon="5.87302">
        <ele>1295.4460449219</ele>
        <time>2017-01-15T08:35:46Z</time>
      </trkpt>
      <trkpt lat="45.31334" lon="5.87292">
        <ele>1296.4460449219</ele>
        <time>2017-01-15T08:35:55Z</time>
      </trkpt>
      <trkpt lat="45.31337" lon="5.87281">
        <ele>1300.4460449219</ele>
        <time>2017-01-15T08:36:02Z</time>
      </trkpt>
      <trkpt lat="45.31338" lon="5.8727">
        <ele>1302.4460449219</ele>
        <time>2017-01-15T08:36:10Z</time>
      </trkpt>
      <trkpt lat="45.31339" lon="5.87259">
        <ele>1305.4460449219</ele>
        <time>2017-01-15T08:36:20Z</time>
      </trkpt>
      <trkpt lat="45.31341" lon="5.87248">
        <ele>1311.4460449219</ele>
        <time>2017-01-15T08:36:28Z</time>
      </trkpt>
      <trkpt lat="45.31342" lon="5.87238">
        <ele>1313.4460449219</ele>
        <time>2017-01-15T08:36:36Z</time>
      </trkpt>
      <trkpt lat="45.31345" lon="5.87228">
        <ele>1313.4460449219</ele>
        <time>2017-01-15T08:36:44Z</time>
      </trkpt>
      <trkpt lat="45.3135" lon="5.87218">
        <ele>1315.4460449219</ele>
        <time>2017-01-15T08:36:53Z</time>
      </trkpt>
      <trkpt lat="45.31354" lon="5.87209">
        <ele>1318.4460449219</ele>
        <time>2017-01-15T08:37:05Z</time>
      </trkpt>
      <trkpt lat="45.31356" lon="5.8722">
        <ele>1317.4460449219</ele>
        <time>2017-01-15T08:38:09Z</time>
      </trkpt>
      <trkpt lat="45.31351" lon="5.8728">
        <ele>1303.4460449219</ele>
        <time>2017-01-15T08:38:14Z</time>
      </trkpt>
      <trkpt lat="45.31343" lon="5.87333">
        <ele>1292.4460449219</ele>
        <time>2017-01-15T08:38:19Z</time>
      </trkpt>
      <trkpt lat="45.31331" lon="5.87397">
        <ele>1287.4460449219</ele>
        <time>2017-01-15T08:38:24Z</time>
      </trkpt>
      <trkpt lat="45.31341" lon="5.87473">
        <ele>1262.4460449219</ele>
        <time>2017-01-15T08:38:29Z</time>
      </trkpt>
      <trkpt lat="45.31346" lon="5.87487">
        <ele>1256.4460449219</ele>
        <time>2017-01-15T08:38:30Z</time>
      </trkpt>
      <trkpt lat="45.3136" lon="5.87578">
        <ele>1227.4460449219</ele>
        <time>2017-01-15T08:38:35Z</time>
      </trkpt>
      <trkpt lat="45.31378" lon="5.87654">
        <ele>1202.4460449219</ele>
        <time>2017-01-15T08:38:40Z</time>
      </trkpt>
      <trkpt lat="45.31381" lon="5.87753">
        <ele>1179.4460449219</ele>
        <time>2017-01-15T08:38:45Z</time>
      </trkpt>
      <trkpt lat="45.31381" lon="5.87836">
        <ele>1162.4460449219</ele>
        <time>2017-01-15T08:38:50Z</time>
      </trkpt>
      <trkpt lat="45.31374" lon="5.87895">
        <ele>1141.4460449219</ele>
        <time>2017-01-15T08:38:56Z</time>
      </trkpt>
      <trkpt lat="45.31365" lon="5.87989">
        <ele>1135.4470214844</ele>
        <time>2017-01-15T08:39:01Z</time>
      </trkpt>
      <trkpt lat="45.31373" lon="5.88069">
        <ele>1126.4470214844</ele>
        <time>2017-01-15T08:39:06Z</time>
      </trkpt>
      <trkpt lat="45.31401" lon="5.88154">
        <ele>1106.4470214844</ele>
        <time>2017-01-15T08:39:11Z</time>
      </trkpt>
      <trkpt lat="45.31399" lon="5.88176">
        <ele>1097.4470214844</ele>
        <time>2017-01-15T08:39:12Z</time>
      </trkpt>
      <trkpt lat="45.31412" lon="5.88225">
        <ele>1073.4470214844</ele>
        <time>2017-01-15T08:39:15Z</time>
      </trkpt>
      <trkpt lat="45.31404" lon="5.88264">
        <ele>1061.4470214844</ele>
        <time>2017-01-15T08:39:17Z</time>
      </trkpt>
      <trkpt lat="45.31393" lon="5.88275">
        <ele>1051.4470214844</ele>
        <time>2017-01-15T08:39:18Z</time>
      </trkpt>
      <trkpt lat="45.31383" lon="5.88286">
        <ele>1046.4470214844</ele>
        <time>2017-01-15T08:39:19Z</time>
      </trkpt>
      <trkpt lat="45.31378" lon="5.88297">
        <ele>1040.4470214844</ele>
        <time>2017-01-15T08:39:20Z</time>
      </trkpt>
      <trkpt lat="45.31371" lon="5.88375">
        <ele>1012.4470214844</ele>
        <time>2017-01-15T08:39:25Z</time>
      </trkpt>
      <trkpt lat="45.31369" lon="5.88391">
        <ele>1007.4470214844</ele>
        <time>2017-01-15T08:39:26Z</time>
      </trkpt>
      <trkpt lat="45.3137" lon="5.88474">
        <ele>991.44702148438</ele>
        <time>2017-01-15T08:39:31Z</time>
      </trkpt>
      <trkpt lat="45.31377" lon="5.885">
        <ele>978.44702148438</ele>
        <time>2017-01-15T08:41:11Z</time>
      </trkpt>
      <trkpt lat="45.31376" lon="5.88489">
        <ele>982.44702148438</ele>
        <time>2017-01-15T08:41:18Z</time>
      </trkpt>
      <trkpt lat="45.31378" lon="5.88478">
        <ele>980.44702148438</ele>
        <time>2017-01-15T08:41:25Z</time>
      </trkpt>
      <trkpt lat="45.31379" lon="5.88467">
        <ele>983.44702148438</ele>
        <time>2017-01-15T08:41:34Z</time>
      </trkpt>
      <trkpt lat="45.31381" lon="5.88456">
        <ele>983.44702148438</ele>
        <time>2017-01-15T08:41:42Z</time>
      </trkpt>
      <trkpt lat="45.31383" lon="5.88445">
        <ele>984.44702148438</ele>
        <time>2017-01-15T08:41:51Z</time>
      </trkpt>
      <trkpt lat="45.31383" lon="5.88434">
        <ele>984.44702148438</ele>
        <time>2017-01-15T08:41:57Z</time>
      </trkpt>
      <trkpt lat="45.31384" lon="5.88423">
        <ele>985.44702148438</ele>
        <time>2017-01-15T08:42:07Z</time>
      </trkpt>
      <trkpt lat="45.31384" lon="5.88413">
        <ele>993.44702148438</ele>
        <time>2017-01-15T08:42:15Z</time>
      </trkpt>
      <trkpt lat="45.31387" lon="5.88403">
        <ele>996.44702148438</ele>
        <time>2017-01-15T08:42:24Z</time>
      </trkpt>
      <trkpt lat="45.31388" lon="5.88393">
        <ele>999.44702148438</ele>
        <time>2017-01-15T08:42:34Z</time>
      </trkpt>
      <trkpt lat="45.31391" lon="5.88383">
        <ele>1000.4470214844</ele>
        <time>2017-01-15T08:42:43Z</time>
      </trkpt>
      <trkpt lat="45.31395" lon="5.88371">
        <ele>1001.4470214844</ele>
        <time>2017-01-15T08:42:55Z</time>
      </trkpt>
      <trkpt lat="45.31395" lon="5.8836">
        <ele>1004.4470214844</ele>
        <time>2017-01-15T08:43:04Z</time>
      </trkpt>
      <trkpt lat="45.31395" lon="5.88349">
        <ele>1007.4470214844</ele>
        <time>2017-01-15T08:43:12Z</time>
      </trkpt>
      <trkpt lat="45.31397" lon="5.88339">
        <ele>1009.4470214844</ele>
        <time>2017-01-15T08:43:21Z</time>
      </trkpt>
      <trkpt lat="45.31398" lon="5.88329">
        <ele>1011.4470214844</ele>
        <time>2017-01-15T08:43:30Z</time>
      </trkpt>
      <trkpt lat="45.31401" lon="5.88319">
        <ele>1013.4470214844</ele>
        <time>2017-01-15T08:43:41Z</time>
      </trkpt>
      <trkpt lat="45.31403" lon="5.88307">
        <ele>1017.4470214844</ele>
        <time>2017-01-15T08:43:49Z</time>
      </trkpt>
      <trkpt lat="45.31404" lon="5.88296">
        <ele>1018.4470214844</ele>
        <time>2017-01-15T08:44:01Z</time>
      </trkpt>
      <trkpt lat="45.31406" lon="5.88285">
        <ele>1016.4470214844</ele>
        <time>2017-01-15T08:44:10Z</time>
      </trkpt>
      <trkpt lat="45.31409" lon="5.88275">
        <ele>1023.4470214844</ele>
        <time>2017-01-15T08:44:21Z</time>
      </trkpt>
      <trkpt lat="45.31411" lon="5.88264">
        <ele>1024.4470214844</ele>
        <time>2017-01-15T08:44:31Z</time>
      </trkpt>
      <trkpt lat="45.3141" lon="5.88253">
        <ele>1026.4470214844</ele>
        <time>2017-01-15T08:44:40Z</time>
      </trkpt>
      <trkpt lat="45.31414" lon="5.88244">
        <ele>1028.4470214844</ele>
        <time>2017-01-15T08:44:50Z</time>
      </trkpt>
      <trkpt lat="45.31415" lon="5.88233">
        <ele>1030.4470214844</ele>
        <time>2017-01-15T08:45:03Z</time>
      </trkpt>
      <trkpt lat="45.31418" lon="5.88223">
        <ele>1029.4470214844</ele>
        <time>2017-01-15T08:45:14Z</time>
      </trkpt>
      <trkpt lat="45.31419" lon="5.88213">
        <ele>1035.4470214844</ele>
        <time>2017-01-15T08:45:24Z</time>
      </trkpt>
      <trkpt lat="45.31423" lon="5.88203">
        <ele>1044.4470214844</ele>
        <time>2017-01-15T08:45:35Z</time>
      </trkpt>
      <trkpt lat="45.31421" lon="5.88193">
        <ele>1043.4470214844</ele>
        <time>2017-01-15T08:45:44Z</time>
      </trkpt>
      <trkpt lat="45.31421" lon="5.88182">
        <ele>1044.4470214844</ele>
        <time>2017-01-15T08:46:50Z</time>
      </trkpt>
      <trkpt lat="45.3142" lon="5.88171">
        <ele>1046.4470214844</ele>
        <time>2017-01-15T08:46:58Z</time>
      </trkpt>
      <trkpt lat="45.31419" lon="5.88162">
        <ele>1054.4470214844</ele>
        <time>2017-01-15T08:47:07Z</time>
      </trkpt>
      <trkpt lat="45.31418" lon="5.88151">
        <ele>1062.4470214844</ele>
        <time>2017-01-15T08:47:28Z</time>
      </trkpt>
      <trkpt lat="45.31418" lon="5.88139">
        <ele>1063.4470214844</ele>
        <time>2017-01-15T08:47:38Z</time>
      </trkpt>
      <trkpt lat="45.31416" lon="5.88129">
        <ele>1063.4470214844</ele>
        <time>2017-01-15T08:47:46Z</time>
      </trkpt>
      <trkpt lat="45.31413" lon="5.88119">
        <ele>1072.4470214844</ele>
        <time>2017-01-15T08:47:59Z</time>
      </trkpt>
      <trkpt lat="45.31411" lon="5.88109">
        <ele>1078.4470214844</ele>
        <time>2017-01-15T08:48:08Z</time>
      </trkpt>
      <trkpt lat="45.31408" lon="5.88099">
        <ele>1078.4470214844</ele>
        <time>2017-01-15T08:48:18Z</time>
      </trkpt>
      <trkpt lat="45.31403" lon="5.88091">
        <ele>1082.4470214844</ele>
        <time>2017-01-15T08:48:25Z</time>
      </trkpt>
      <trkpt lat="45.31402" lon="5.88081">
        <ele>1084.4470214844</ele>
        <time>2017-01-15T08:48:37Z</time>
      </trkpt>
      <trkpt lat="45.31397" lon="5.88074">
        <ele>1089.4470214844</ele>
        <time>2017-01-15T08:48:46Z</time>
      </trkpt>
      <trkpt lat="45.31397" lon="5.88062">
        <ele>1093.4470214844</ele>
        <time>2017-01-15T08:48:56Z</time>
      </trkpt>
      <trkpt lat="45.31391" lon="5.88057">
        <ele>1095.4470214844</ele>
        <time>2017-01-15T08:49:08Z</time>
      </trkpt>
      <trkpt lat="45.3139" lon="5.88046">
        <ele>1097.4470214844</ele>
        <time>2017-01-15T08:49:19Z</time>
      </trkpt>
      <trkpt lat="45.31383" lon="5.88039">
        <ele>1097.4470214844</ele>
        <time>2017-01-15T08:49:32Z</time>
      </trkpt>
      <trkpt lat="45.3138" lon="5.8803">
        <ele>1101.4470214844</ele>
        <time>2017-01-15T08:49:40Z</time>
      </trkpt>
      <trkpt lat="45.31378" lon="5.8802">
        <ele>1104.4470214844</ele>
        <time>2017-01-15T08:49:52Z</time>
      </trkpt>
      <trkpt lat="45.31373" lon="5.88011">
        <ele>1108.4470214844</ele>
        <time>2017-01-15T08:50:07Z</time>
      </trkpt>
      <trkpt lat="45.31372" lon="5.88001">
        <ele>1112.4470214844</ele>
        <time>2017-01-15T08:50:23Z</time>
      </trkpt>
      <trkpt lat="45.31375" lon="5.87991">
        <ele>1113.4470214844</ele>
        <time>2017-01-15T08:50:31Z</time>
      </trkpt>
      <trkpt lat="45.31376" lon="5.87981">
        <ele>1114.4470214844</ele>
        <time>2017-01-15T08:50:40Z</time>
      </trkpt>
      <trkpt lat="45.31376" lon="5.8797">
        <ele>1117.4470214844</ele>
        <time>2017-01-15T08:50:49Z</time>
      </trkpt>
      <trkpt lat="45.31376" lon="5.8796">
        <ele>1124.4470214844</ele>
        <time>2017-01-15T08:51:03Z</time>
      </trkpt>
      <trkpt lat="45.31376" lon="5.87949">
        <ele>1125.4470214844</ele>
        <time>2017-01-15T08:51:12Z</time>
      </trkpt>
      <trkpt lat="45.31375" lon="5.87938">
        <ele>1131.4470214844</ele>
        <time>2017-01-15T08:51:27Z</time>
      </trkpt>
      <trkpt lat="45.31378" lon="5.87927">
        <ele>1132.4470214844</ele>
        <time>2017-01-15T08:51:39Z</time>
      </trkpt>
      <trkpt lat="45.31381" lon="5.87917">
        <ele>1134.4470214844</ele>
        <time>2017-01-15T08:51:54Z</time>
      </trkpt>
      <trkpt lat="45.31384" lon="5.87907">
        <ele>1138.4470214844</ele>
        <time>2017-01-15T08:52:03Z</time>
      </trkpt>
      <trkpt lat="45.31381" lon="5.87896">
        <ele>1141.4470214844</ele>
        <time>2017-01-15T08:52:15Z</time>
      </trkpt>
      <trkpt lat="45.31376" lon="5.87887">
        <ele>1143.4460449219</ele>
        <time>2017-01-15T08:52:23Z</time>
      </trkpt>
      <trkpt lat="45.31373" lon="5.87877">
        <ele>1145.4460449219</ele>
        <time>2017-01-15T08:52:36Z</time>
      </trkpt>
      <trkpt lat="45.31372" lon="5.87865">
        <ele>1148.4460449219</ele>
        <time>2017-01-15T08:52:45Z</time>
      </trkpt>
      <trkpt lat="45.31371" lon="5.87854">
        <ele>1150.4460449219</ele>
        <time>2017-01-15T08:52:55Z</time>
      </trkpt>
      <trkpt lat="45.31371" lon="5.87844">
        <ele>1152.4460449219</ele>
        <time>2017-01-15T08:53:06Z</time>
      </trkpt>
      <trkpt lat="45.3137" lon="5.87833">
        <ele>1156.4460449219</ele>
        <time>2017-01-15T08:53:15Z</time>
      </trkpt>
      <trkpt lat="45.31369" lon="5.87822">
        <ele>1158.4460449219</ele>
        <time>2017-01-15T08:53:25Z</time>
      </trkpt>
      <trkpt lat="45.31367" lon="5.87811">
        <ele>1161.4460449219</ele>
        <time>2017-01-15T08:53:33Z</time>
      </trkpt>
      <trkpt lat="45.31365" lon="5.87801">
        <ele>1162.4460449219</ele>
        <time>2017-01-15T08:53:43Z</time>
      </trkpt>
      <trkpt lat="45.31364" lon="5.87789">
        <ele>1165.4460449219</ele>
        <time>2017-01-15T08:53:54Z</time>
      </trkpt>
      <trkpt lat="45.31365" lon="5.87778">
        <ele>1165.4460449219</ele>
        <time>2017-01-15T08:54:04Z</time>
      </trkpt>
      <trkpt lat="45.31363" lon="5.87768">
        <ele>1169.4460449219</ele>
        <time>2017-01-15T08:54:11Z</time>
      </trkpt>
      <trkpt lat="45.31363" lon="5.87757">
        <ele>1171.4460449219</ele>
        <time>2017-01-15T08:54:20Z</time>
      </trkpt>
      <trkpt lat="45.31362" lon="5.87746">
        <ele>1176.4460449219</ele>
        <time>2017-01-15T08:54:29Z</time>
      </trkpt>
      <trkpt lat="45.31362" lon="5.87736">
        <ele>1181.4460449219</ele>
        <time>2017-01-15T08:54:39Z</time>
      </trkpt>
      <trkpt lat="45.31362" lon="5.87725">
        <ele>1183.4460449219</ele>
        <time>2017-01-15T08:54:48Z</time>
      </trkpt>
      <trkpt lat="45.31363" lon="5.87714">
        <ele>1184.4460449219</ele>
        <time>2017-01-15T08:54:56Z</time>
      </trkpt>
      <trkpt lat="45.31362" lon="5.87704">
        <ele>1188.4460449219</ele>
        <time>2017-01-15T08:55:06Z</time>
      </trkpt>
      <trkpt lat="45.31363" lon="5.87693">
        <ele>1191.4460449219</ele>
        <time>2017-01-15T08:55:19Z</time>
      </trkpt>
      <trkpt lat="45.31363" lon="5.87682">
        <ele>1197.4460449219</ele>
        <time>2017-01-15T08:55:32Z</time>
      </trkpt>
      <trkpt lat="45.31363" lon="5.87671">
        <ele>1202.4460449219</ele>
        <time>2017-01-15T08:55:43Z</time>
      </trkpt>
      <trkpt lat="45.31362" lon="5.87659">
        <ele>1205.4460449219</ele>
        <time>2017-01-15T08:55:55Z</time>
      </trkpt>
      <trkpt lat="45.31361" lon="5.87648">
        <ele>1209.4460449219</ele>
        <time>2017-01-15T08:56:09Z</time>
      </trkpt>
      <trkpt lat="45.31363" lon="5.87637">
        <ele>1216.4460449219</ele>
        <time>2017-01-15T08:56:20Z</time>
      </trkpt>
      <trkpt lat="45.31362" lon="5.87627">
        <ele>1220.4460449219</ele>
        <time>2017-01-15T08:56:33Z</time>
      </trkpt>
      <trkpt lat="45.31359" lon="5.87616">
        <ele>1222.4460449219</ele>
        <time>2017-01-15T08:56:46Z</time>
      </trkpt>
      <trkpt lat="45.31358" lon="5.87605">
        <ele>1225.4460449219</ele>
        <time>2017-01-15T08:57:03Z</time>
      </trkpt>
      <trkpt lat="45.31355" lon="5.87593">
        <ele>1227.4460449219</ele>
        <time>2017-01-15T08:57:14Z</time>
      </trkpt>
      <trkpt lat="45.31354" lon="5.87583">
        <ele>1228.4460449219</ele>
        <time>2017-01-15T08:57:22Z</time>
      </trkpt>
      <trkpt lat="45.31353" lon="5.87571">
        <ele>1231.4460449219</ele>
        <time>2017-01-15T08:57:32Z</time>
      </trkpt>
      <trkpt lat="45.31352" lon="5.8756">
        <ele>1233.4460449219</ele>
        <time>2017-01-15T08:57:44Z</time>
      </trkpt>
      <trkpt lat="45.3135" lon="5.8755">
        <ele>1237.4460449219</ele>
        <time>2017-01-15T08:57:56Z</time>
      </trkpt>
      <trkpt lat="45.31347" lon="5.8754">
        <ele>1240.4460449219</ele>
        <time>2017-01-15T08:58:13Z</time>
      </trkpt>
      <trkpt lat="45.31341" lon="5.87531">
        <ele>1242.4460449219</ele>
        <time>2017-01-15T08:58:22Z</time>
      </trkpt>
      <trkpt lat="45.31336" lon="5.87521">
        <ele>1246.4460449219</ele>
        <time>2017-01-15T08:58:34Z</time>
      </trkpt>
      <trkpt lat="45.31332" lon="5.87513">
        <ele>1251.4460449219</ele>
        <time>2017-01-15T08:58:43Z</time>
      </trkpt>
      <trkpt lat="45.31337" lon="5.87506">
        <ele>1251.4460449219</ele>
        <time>2017-01-15T08:58:54Z</time>
      </trkpt>
      <trkpt lat="45.31338" lon="5.87468">
        <ele>1265.4460449219</ele>
        <time>2017-01-15T08:59:40Z</time>
      </trkpt>
      <trkpt lat="45.31332" lon="5.87475">
        <ele>1260.4460449219</ele>
        <time>2017-01-15T08:59:43Z</time>
      </trkpt>
      <trkpt lat="45.31332" lon="5.87463">
        <ele>1268.4460449219</ele>
        <time>2017-01-15T08:59:51Z</time>
      </trkpt>
      <trkpt lat="45.3133" lon="5.87453">
        <ele>1273.4460449219</ele>
        <time>2017-01-15T09:00:01Z</time>
      </trkpt>
      <trkpt lat="45.31328" lon="5.87443">
        <ele>1275.4460449219</ele>
        <time>2017-01-15T09:00:11Z</time>
      </trkpt>
      <trkpt lat="45.31328" lon="5.87433">
        <ele>1278.4460449219</ele>
        <time>2017-01-15T09:00:23Z</time>
      </trkpt>
      <trkpt lat="45.31325" lon="5.87422">
        <ele>1278.4460449219</ele>
        <time>2017-01-15T09:00:37Z</time>
      </trkpt>
      <trkpt lat="45.31325" lon="5.87412">
        <ele>1284.4460449219</ele>
        <time>2017-01-15T09:00:44Z</time>
      </trkpt>
      <trkpt lat="45.31328" lon="5.87401">
        <ele>1290.4460449219</ele>
        <time>2017-01-15T09:00:55Z</time>
      </trkpt>
      <trkpt lat="45.31328" lon="5.8739">
        <ele>1292.4460449219</ele>
        <time>2017-01-15T09:01:03Z</time>
      </trkpt>
      <trkpt lat="45.31331" lon="5.8738">
        <ele>1296.4460449219</ele>
        <time>2017-01-15T09:01:10Z</time>
      </trkpt>
      <trkpt lat="45.31331" lon="5.8737">
        <ele>1299.4460449219</ele>
        <time>2017-01-15T09:01:17Z</time>
      </trkpt>
      <trkpt lat="45.31332" lon="5.87359">
        <ele>1298.4460449219</ele>
        <time>2017-01-15T09:01:22Z</time>
      </trkpt>
      <trkpt lat="45.31332" lon="5.87347">
        <ele>1295.4460449219</ele>
        <time>2017-01-15T09:01:28Z</time>
      </trkpt>
      <trkpt lat="45.31331" lon="5.87337">
        <ele>1300.4460449219</ele>
        <time>2017-01-15T09:01:35Z</time>
      </trkpt>
      <trkpt lat="45.31332" lon="5.87326">
        <ele>1301.4460449219</ele>
        <time>2017-01-15T09:01:42Z</time>
      </trkpt>
      <trkpt lat="45.31334" lon="5.87316">
        <ele>1304.4460449219</ele>
        <time>2017-01-15T09:01:49Z</time>
      </trkpt>
      <trkpt lat="45.31336" lon="5.87305">
        <ele>1307.4460449219</ele>
        <time>2017-01-15T09:01:59Z</time>
      </trkpt>
      <trkpt lat="45.31337" lon="5.87295">
        <ele>1309.4460449219</ele>
        <time>2017-01-15T09:02:06Z</time>
      </trkpt>
      <trkpt lat="45.31339" lon="5.87284">
        <ele>1312.4460449219</ele>
        <time>2017-01-15T09:02:12Z</time>
      </trkpt>
      <trkpt lat="45.3134" lon="5.87273">
        <ele>1315.4460449219</ele>
        <time>2017-01-15T09:02:21Z</time>
      </trkpt>
      <trkpt lat="45.3134" lon="5.87261">
        <ele>1317.4460449219</ele>
        <time>2017-01-15T09:02:29Z</time>
      </trkpt>
      <trkpt lat="45.31341" lon="5.87251">
        <ele>1321.4460449219</ele>
        <time>2017-01-15T09:02:38Z</time>
      </trkpt>
      <trkpt lat="45.31344" lon="5.8724">
        <ele>1322.4460449219</ele>
        <time>2017-01-15T09:02:46Z</time>
      </trkpt>
      <trkpt lat="45.31345" lon="5.87229">
        <ele>1323.4460449219</ele>
        <time>2017-01-15T09:02:56Z</time>
      </trkpt>
      <trkpt lat="45.31345" lon="5.87219">
        <ele>1324.4460449219</ele>
        <time>2017-01-15T09:03:04Z</time>
      </trkpt>
      <trkpt lat="45.31343" lon="5.87209">
        <ele>1322.4460449219</ele>
        <time>2017-01-15T09:03:12Z</time>
      </trkpt>
      <trkpt lat="45.31341" lon="5.87199">
        <ele>1326.4449462891</ele>
        <time>2017-01-15T09:03:32Z</time>
      </trkpt>
      <trkpt lat="45.31345" lon="5.8719">
        <ele>1331.4449462891</ele>
        <time>2017-01-15T09:04:13Z</time>
      </trkpt>
      <trkpt lat="45.31351" lon="5.87183">
        <ele>1333.4449462891</ele>
        <time>2017-01-15T09:04:22Z</time>
      </trkpt>
      <trkpt lat="45.31356" lon="5.87175">
        <ele>1337.4449462891</ele>
        <time>2017-01-15T09:04:31Z</time>
      </trkpt>
      <trkpt lat="45.31358" lon="5.87164">
        <ele>1339.4449462891</ele>
        <time>2017-01-15T09:04:57Z</time>
      </trkpt>
      <trkpt lat="45.31363" lon="5.87156">
        <ele>1342.4449462891</ele>
        <time>2017-01-15T09:05:07Z</time>
      </trkpt>
      <trkpt lat="45.3137" lon="5.87154">
        <ele>1344.4449462891</ele>
        <time>2017-01-15T09:07:00Z</time>
      </trkpt>
      <trkpt lat="45.31377" lon="5.87163">
        <ele>1336.4460449219</ele>
        <time>2017-01-15T09:07:17Z</time>
      </trkpt>
      <trkpt lat="45.31371" lon="5.87202">
        <ele>1324.4460449219</ele>
        <time>2017-01-15T09:07:23Z</time>
      </trkpt>
      <trkpt lat="45.31363" lon="5.87225">
        <ele>1323.4460449219</ele>
        <time>2017-01-15T09:07:28Z</time>
      </trkpt>
      <trkpt lat="45.31349" lon="5.8728">
        <ele>1314.4460449219</ele>
        <time>2017-01-15T09:07:33Z</time>
      </trkpt>
      <trkpt lat="45.31331" lon="5.87375">
        <ele>1299.4460449219</ele>
        <time>2017-01-15T09:07:38Z</time>
      </trkpt>
      <trkpt lat="45.31339" lon="5.87436">
        <ele>1284.4460449219</ele>
        <time>2017-01-15T09:07:43Z</time>
      </trkpt>
      <trkpt lat="45.3135" lon="5.87516">
        <ele>1252.4460449219</ele>
        <time>2017-01-15T09:07:48Z</time>
      </trkpt>
      <trkpt lat="45.31362" lon="5.87604">
        <ele>1214.4460449219</ele>
        <time>2017-01-15T09:07:54Z</time>
      </trkpt>
      <trkpt lat="45.31365" lon="5.87679">
        <ele>1192.4460449219</ele>
        <time>2017-01-15T09:07:58Z</time>
      </trkpt>
      <trkpt lat="45.31367" lon="5.87774">
        <ele>1168.4460449219</ele>
        <time>2017-01-15T09:08:03Z</time>
      </trkpt>
      <trkpt lat="45.31372" lon="5.87813">
        <ele>1158.4460449219</ele>
        <time>2017-01-15T09:08:06Z</time>
      </trkpt>
      <trkpt lat="45.31362" lon="5.87845">
        <ele>1153.4460449219</ele>
        <time>2017-01-15T09:08:12Z</time>
      </trkpt>
      <trkpt lat="45.31351" lon="5.87857">
        <ele>1152.4460449219</ele>
        <time>2017-01-15T09:08:40Z</time>
      </trkpt>
      <trkpt lat="45.31333" lon="5.87898">
        <ele>1145.4460449219</ele>
        <time>2017-01-15T09:08:45Z</time>
      </trkpt>
      <trkpt lat="45.31317" lon="5.87945">
        <ele>1140.4460449219</ele>
        <time>2017-01-15T09:08:50Z</time>
      </trkpt>
      <trkpt lat="45.31291" lon="5.88006">
        <ele>1127.4460449219</ele>
        <time>2017-01-15T09:08:55Z</time>
      </trkpt>
      <trkpt lat="45.31253" lon="5.88084">
        <ele>1121.4460449219</ele>
        <time>2017-01-15T09:09:00Z</time>
      </trkpt>
      <trkpt lat="45.31246" lon="5.88102">
        <ele>1110.4470214844</ele>
        <time>2017-01-15T09:09:04Z</time>
      </trkpt>
      <trkpt lat="45.31254" lon="5.88103">
        <ele>1107.4470214844</ele>
        <time>2017-01-15T09:09:07Z</time>
      </trkpt>
      <trkpt lat="45.31252" lon="5.8812">
        <ele>1102.4470214844</ele>
        <time>2017-01-15T09:09:11Z</time>
      </trkpt>
      <trkpt lat="45.31248" lon="5.88143">
        <ele>1095.4470214844</ele>
        <time>2017-01-15T09:09:13Z</time>
      </trkpt>
      <trkpt lat="45.3125" lon="5.88213">
        <ele>1087.4470214844</ele>
        <time>2017-01-15T09:09:18Z</time>
      </trkpt>
      <trkpt lat="45.31296" lon="5.88302">
        <ele>1075.4470214844</ele>
        <time>2017-01-15T09:09:23Z</time>
      </trkpt>
      <trkpt lat="45.31346" lon="5.88395">
        <ele>1065.4470214844</ele>
        <time>2017-01-15T09:09:28Z</time>
      </trkpt>
      <trkpt lat="45.31349" lon="5.88428">
        <ele>1058.4470214844</ele>
        <time>2017-01-15T09:09:30Z</time>
      </trkpt>
      <trkpt lat="45.31356" lon="5.88442">
        <ele>1055.4470214844</ele>
        <time>2017-01-15T09:09:31Z</time>
      </trkpt>
      <trkpt lat="45.3139" lon="5.88478">
        <ele>1042.4470214844</ele>
        <time>2017-01-15T09:09:35Z</time>
      </trkpt>
      <trkpt lat="45.31387" lon="5.88495">
        <ele>1032.4470214844</ele>
        <time>2017-01-15T09:09:36Z</time>
      </trkpt>
      <trkpt lat="45.3138" lon="5.88508">
        <ele>1021.4470214844</ele>
        <time>2017-01-15T09:09:37Z</time>
      </trkpt>
      <trkpt lat="45.3138" lon="5.88523">
        <ele>994.44702148438</ele>
        <time>2017-01-15T09:09:53Z</time>
      </trkpt>
      <trkpt lat="45.3138" lon="5.8851">
        <ele>987.44702148438</ele>
        <time>2017-01-15T09:11:07Z</time>
      </trkpt>
      <trkpt lat="45.31379" lon="5.88499">
        <ele>987.44702148438</ele>
        <time>2017-01-15T09:11:12Z</time>
      </trkpt>
      <trkpt lat="45.31379" lon="5.88487">
        <ele>987.44702148438</ele>
        <time>2017-01-15T09:11:18Z</time>
      </trkpt>
      <trkpt lat="45.3138" lon="5.88476">
        <ele>989.44702148438</ele>
        <time>2017-01-15T09:11:24Z</time>
      </trkpt>
      <trkpt lat="45.3138" lon="5.88464">
        <ele>988.44702148438</ele>
        <time>2017-01-15T09:11:30Z</time>
      </trkpt>
      <trkpt lat="45.31383" lon="5.88454">
        <ele>989.44702148438</ele>
        <time>2017-01-15T09:11:37Z</time>
      </trkpt>
      <trkpt lat="45.31385" lon="5.88444">
        <ele>991.44702148438</ele>
        <time>2017-01-15T09:11:43Z</time>
      </trkpt>
      <trkpt lat="45.31387" lon="5.88433">
        <ele>990.44702148438</ele>
        <time>2017-01-15T09:11:49Z</time>
      </trkpt>
      <trkpt lat="45.31387" lon="5.88422">
        <ele>992.44702148438</ele>
        <time>2017-01-15T09:11:56Z</time>
      </trkpt>
      <trkpt lat="45.31387" lon="5.88411">
        <ele>992.44702148438</ele>
        <time>2017-01-15T09:12:01Z</time>
      </trkpt>
      <trkpt lat="45.3139" lon="5.88401">
        <ele>995.44702148438</ele>
        <time>2017-01-15T09:12:08Z</time>
      </trkpt>
      <trkpt lat="45.31394" lon="5.88392">
        <ele>997.44702148438</ele>
        <time>2017-01-15T09:12:15Z</time>
      </trkpt>
      <trkpt lat="45.31398" lon="5.88381">
        <ele>1000.4470214844</ele>
        <time>2017-01-15T09:12:23Z</time>
      </trkpt>
      <trkpt lat="45.31398" lon="5.8837">
        <ele>1003.4470214844</ele>
        <time>2017-01-15T09:12:32Z</time>
      </trkpt>
      <trkpt lat="45.31397" lon="5.88359">
        <ele>1005.4470214844</ele>
        <time>2017-01-15T09:12:41Z</time>
      </trkpt>
      <trkpt lat="45.31398" lon="5.88348">
        <ele>1007.4470214844</ele>
        <time>2017-01-15T09:12:52Z</time>
      </trkpt>
      <trkpt lat="45.31398" lon="5.88338">
        <ele>1009.4470214844</ele>
        <time>2017-01-15T09:13:04Z</time>
      </trkpt>
      <trkpt lat="45.31402" lon="5.88326">
        <ele>1005.4470214844</ele>
        <time>2017-01-15T09:13:20Z</time>
      </trkpt>
      <trkpt lat="45.31404" lon="5.88314">
        <ele>1004.4470214844</ele>
        <time>2017-01-15T09:13:35Z</time>
      </trkpt>
      <trkpt lat="45.31405" lon="5.88303">
        <ele>1005.4470214844</ele>
        <time>2017-01-15T09:13:46Z</time>
      </trkpt>
      <trkpt lat="45.31407" lon="5.88293">
        <ele>1009.4470214844</ele>
        <time>2017-01-15T09:13:53Z</time>
      </trkpt>
      <trkpt lat="45.31407" lon="5.88281">
        <ele>1011.4470214844</ele>
        <time>2017-01-15T09:14:00Z</time>
      </trkpt>
      <trkpt lat="45.3141" lon="5.88271">
        <ele>1012.4470214844</ele>
        <time>2017-01-15T09:14:09Z</time>
      </trkpt>
      <trkpt lat="45.31412" lon="5.8826">
        <ele>1015.4470214844</ele>
        <time>2017-01-15T09:14:24Z</time>
      </trkpt>
      <trkpt lat="45.31415" lon="5.8825">
        <ele>1015.4470214844</ele>
        <time>2017-01-15T09:14:33Z</time>
      </trkpt>
      <trkpt lat="45.31415" lon="5.8824">
        <ele>1018.4470214844</ele>
        <time>2017-01-15T09:14:45Z</time>
      </trkpt>
      <trkpt lat="45.31417" lon="5.88229">
        <ele>1020.4470214844</ele>
        <time>2017-01-15T09:14:58Z</time>
      </trkpt>
      <trkpt lat="45.31418" lon="5.88217">
        <ele>1032.4470214844</ele>
        <time>2017-01-15T09:15:09Z</time>
      </trkpt>
      <trkpt lat="45.3142" lon="5.88207">
        <ele>1030.4470214844</ele>
        <time>2017-01-15T09:15:18Z</time>
      </trkpt>
      <trkpt lat="45.3142" lon="5.88196">
        <ele>1033.4470214844</ele>
        <time>2017-01-15T09:15:27Z</time>
      </trkpt>
      <trkpt lat="45.31421" lon="5.88186">
        <ele>1039.4470214844</ele>
        <time>2017-01-15T09:15:35Z</time>
      </trkpt>
      <trkpt lat="45.3142" lon="5.88175">
        <ele>1046.4470214844</ele>
        <time>2017-01-15T09:15:44Z</time>
      </trkpt>
      <trkpt lat="45.31419" lon="5.88164">
        <ele>1052.4470214844</ele>
        <time>2017-01-15T09:15:52Z</time>
      </trkpt>
      <trkpt lat="45.31419" lon="5.88153">
        <ele>1056.4470214844</ele>
        <time>2017-01-15T09:16:06Z</time>
      </trkpt>
      <trkpt lat="45.31418" lon="5.88142">
        <ele>1059.4470214844</ele>
        <time>2017-01-15T09:16:17Z</time>
      </trkpt>
      <trkpt lat="45.31417" lon="5.88131">
        <ele>1060.4470214844</ele>
        <time>2017-01-15T09:16:33Z</time>
      </trkpt>
      <trkpt lat="45.31416" lon="5.88121">
        <ele>1065.4470214844</ele>
        <time>2017-01-15T09:16:45Z</time>
      </trkpt>
      <trkpt lat="45.31412" lon="5.88111">
        <ele>1067.4470214844</ele>
        <time>2017-01-15T09:16:53Z</time>
      </trkpt>
      <trkpt lat="45.31409" lon="5.88101">
        <ele>1075.4470214844</ele>
        <time>2017-01-15T09:17:04Z</time>
      </trkpt>
      <trkpt lat="45.31406" lon="5.88092">
        <ele>1083.4470214844</ele>
        <time>2017-01-15T09:17:14Z</time>
      </trkpt>
      <trkpt lat="45.31404" lon="5.88081">
        <ele>1085.4470214844</ele>
        <time>2017-01-15T09:17:32Z</time>
      </trkpt>
      <trkpt lat="45.31404" lon="5.88069">
        <ele>1087.4470214844</ele>
        <time>2017-01-15T09:17:41Z</time>
      </trkpt>
      <trkpt lat="45.31398" lon="5.88062">
        <ele>1091.4470214844</ele>
        <time>2017-01-15T09:17:56Z</time>
      </trkpt>
      <trkpt lat="45.31397" lon="5.8805">
        <ele>1092.4470214844</ele>
        <time>2017-01-15T09:18:04Z</time>
      </trkpt>
      <trkpt lat="45.31396" lon="5.88039">
        <ele>1089.4470214844</ele>
        <time>2017-01-15T09:18:16Z</time>
      </trkpt>
      <trkpt lat="45.31389" lon="5.88041">
        <ele>1090.4470214844</ele>
        <time>2017-01-15T09:18:21Z</time>
      </trkpt>
      <trkpt lat="45.31386" lon="5.88031">
        <ele>1093.4470214844</ele>
        <time>2017-01-15T09:18:31Z</time>
      </trkpt>
      <trkpt lat="45.31381" lon="5.88024">
        <ele>1092.4470214844</ele>
        <time>2017-01-15T09:18:44Z</time>
      </trkpt>
      <trkpt lat="45.31375" lon="5.88017">
        <ele>1100.4470214844</ele>
        <time>2017-01-15T09:18:55Z</time>
      </trkpt>
      <trkpt lat="45.3137" lon="5.8801">
        <ele>1110.4470214844</ele>
        <time>2017-01-15T09:19:10Z</time>
      </trkpt>
      <trkpt lat="45.31369" lon="5.87999">
        <ele>1111.4470214844</ele>
        <time>2017-01-15T09:19:25Z</time>
      </trkpt>
      <trkpt lat="45.31369" lon="5.87989">
        <ele>1117.4470214844</ele>
        <time>2017-01-15T09:19:38Z</time>
      </trkpt>
      <trkpt lat="45.31373" lon="5.8798">
        <ele>1120.4470214844</ele>
        <time>2017-01-15T09:19:46Z</time>
      </trkpt>
      <trkpt lat="45.31374" lon="5.87969">
        <ele>1121.4470214844</ele>
        <time>2017-01-15T09:19:56Z</time>
      </trkpt>
      <trkpt lat="45.31374" lon="5.87957">
        <ele>1124.4470214844</ele>
        <time>2017-01-15T09:20:07Z</time>
      </trkpt>
      <trkpt lat="45.31377" lon="5.87947">
        <ele>1125.4470214844</ele>
        <time>2017-01-15T09:20:21Z</time>
      </trkpt>
      <trkpt lat="45.31377" lon="5.87936">
        <ele>1128.4470214844</ele>
        <time>2017-01-15T09:20:32Z</time>
      </trkpt>
      <trkpt lat="45.31381" lon="5.87927">
        <ele>1128.4470214844</ele>
        <time>2017-01-15T09:20:43Z</time>
      </trkpt>
      <trkpt lat="45.31384" lon="5.87917">
        <ele>1132.4470214844</ele>
        <time>2017-01-15T09:20:54Z</time>
      </trkpt>
      <trkpt lat="45.31386" lon="5.87907">
        <ele>1137.4470214844</ele>
        <time>2017-01-15T09:21:02Z</time>
      </trkpt>
      <trkpt lat="45.31383" lon="5.87897">
        <ele>1140.4470214844</ele>
        <time>2017-01-15T09:21:14Z</time>
      </trkpt>
      <trkpt lat="45.3138" lon="5.87888">
        <ele>1144.4460449219</ele>
        <time>2017-01-15T09:21:23Z</time>
      </trkpt>
      <trkpt lat="45.31378" lon="5.87878">
        <ele>1146.4460449219</ele>
        <time>2017-01-15T09:21:33Z</time>
      </trkpt>
      <trkpt lat="45.31376" lon="5.87867">
        <ele>1150.4460449219</ele>
        <time>2017-01-15T09:21:43Z</time>
      </trkpt>
      <trkpt lat="45.31375" lon="5.87857">
        <ele>1153.4460449219</ele>
        <time>2017-01-15T09:21:55Z</time>
      </trkpt>
      <trkpt lat="45.31373" lon="5.87845">
        <ele>1155.4460449219</ele>
        <time>2017-01-15T09:22:05Z</time>
      </trkpt>
      <trkpt lat="45.31372" lon="5.87834">
        <ele>1158.4460449219</ele>
        <time>2017-01-15T09:22:15Z</time>
      </trkpt>
      <trkpt lat="45.31368" lon="5.87825">
        <ele>1158.4460449219</ele>
        <time>2017-01-15T09:22:26Z</time>
      </trkpt>
      <trkpt lat="45.31366" lon="5.87815">
        <ele>1161.4460449219</ele>
        <time>2017-01-15T09:22:35Z</time>
      </trkpt>
      <trkpt lat="45.31367" lon="5.87804">
        <ele>1162.4460449219</ele>
        <time>2017-01-15T09:22:49Z</time>
      </trkpt>
      <trkpt lat="45.31365" lon="5.87794">
        <ele>1165.4460449219</ele>
        <time>2017-01-15T09:22:55Z</time>
      </trkpt>
      <trkpt lat="45.31366" lon="5.87783">
        <ele>1166.4460449219</ele>
        <time>2017-01-15T09:23:05Z</time>
      </trkpt>
      <trkpt lat="45.31364" lon="5.87772">
        <ele>1171.4460449219</ele>
        <time>2017-01-15T09:23:18Z</time>
      </trkpt>
      <trkpt lat="45.31364" lon="5.87761">
        <ele>1173.4460449219</ele>
        <time>2017-01-15T09:23:26Z</time>
      </trkpt>
      <trkpt lat="45.31363" lon="5.8775">
        <ele>1176.4460449219</ele>
        <time>2017-01-15T09:23:35Z</time>
      </trkpt>
      <trkpt lat="45.31364" lon="5.87739">
        <ele>1180.4460449219</ele>
        <time>2017-01-15T09:23:47Z</time>
      </trkpt>
      <trkpt lat="45.31363" lon="5.87729">
        <ele>1183.4460449219</ele>
        <time>2017-01-15T09:23:57Z</time>
      </trkpt>
      <trkpt lat="45.31364" lon="5.87719">
        <ele>1183.4460449219</ele>
        <time>2017-01-15T09:24:08Z</time>
      </trkpt>
      <trkpt lat="45.31363" lon="5.87708">
        <ele>1188.4460449219</ele>
        <time>2017-01-15T09:24:21Z</time>
      </trkpt>
      <trkpt lat="45.31363" lon="5.87697">
        <ele>1193.4460449219</ele>
        <time>2017-01-15T09:24:30Z</time>
      </trkpt>
      <trkpt lat="45.31364" lon="5.87686">
        <ele>1196.4460449219</ele>
        <time>2017-01-15T09:24:43Z</time>
      </trkpt>
      <trkpt lat="45.31365" lon="5.87675">
        <ele>1198.4460449219</ele>
        <time>2017-01-15T09:24:52Z</time>
      </trkpt>
      <trkpt lat="45.31363" lon="5.87665">
        <ele>1202.4460449219</ele>
        <time>2017-01-15T09:25:02Z</time>
      </trkpt>
      <trkpt lat="45.31361" lon="5.87654">
        <ele>1205.4460449219</ele>
        <time>2017-01-15T09:25:14Z</time>
      </trkpt>
      <trkpt lat="45.31363" lon="5.87644">
        <ele>1209.4460449219</ele>
        <time>2017-01-15T09:25:26Z</time>
      </trkpt>
      <trkpt lat="45.31362" lon="5.87634">
        <ele>1209.4460449219</ele>
        <time>2017-01-15T09:25:36Z</time>
      </trkpt>
      <trkpt lat="45.31361" lon="5.87623">
        <ele>1218.4460449219</ele>
        <time>2017-01-15T09:25:48Z</time>
      </trkpt>
      <trkpt lat="45.3136" lon="5.87613">
        <ele>1219.4460449219</ele>
        <time>2017-01-15T09:25:57Z</time>
      </trkpt>
      <trkpt lat="45.31358" lon="5.87601">
        <ele>1224.4460449219</ele>
        <time>2017-01-15T09:26:12Z</time>
      </trkpt>
      <trkpt lat="45.31356" lon="5.8759">
        <ele>1226.4460449219</ele>
        <time>2017-01-15T09:26:24Z</time>
      </trkpt>
      <trkpt lat="45.31355" lon="5.87579">
        <ele>1228.4460449219</ele>
        <time>2017-01-15T09:26:33Z</time>
      </trkpt>
      <trkpt lat="45.31354" lon="5.87567">
        <ele>1230.4460449219</ele>
        <time>2017-01-15T09:26:45Z</time>
      </trkpt>
      <trkpt lat="45.31352" lon="5.87557">
        <ele>1235.4460449219</ele>
        <time>2017-01-15T09:26:55Z</time>
      </trkpt>
      <trkpt lat="45.3135" lon="5.87547">
        <ele>1238.4460449219</ele>
        <time>2017-01-15T09:27:09Z</time>
      </trkpt>
      <trkpt lat="45.31348" lon="5.87536">
        <ele>1240.4460449219</ele>
        <time>2017-01-15T09:27:25Z</time>
      </trkpt>
      <trkpt lat="45.31345" lon="5.87526">
        <ele>1246.4460449219</ele>
        <time>2017-01-15T09:27:42Z</time>
      </trkpt>
      <trkpt lat="45.31343" lon="5.87515">
        <ele>1250.4460449219</ele>
        <time>2017-01-15T09:27:52Z</time>
      </trkpt>
      <trkpt lat="45.31342" lon="5.87504">
        <ele>1254.4460449219</ele>
        <time>2017-01-15T09:28:03Z</time>
      </trkpt>
      <trkpt lat="45.31339" lon="5.87493">
        <ele>1255.4460449219</ele>
        <time>2017-01-15T09:28:15Z</time>
      </trkpt>
      <trkpt lat="45.31338" lon="5.87483">
        <ele>1259.4460449219</ele>
        <time>2017-01-15T09:28:27Z</time>
      </trkpt>
      <trkpt lat="45.31336" lon="5.87473">
        <ele>1262.4460449219</ele>
        <time>2017-01-15T09:28:38Z</time>
      </trkpt>
      <trkpt lat="45.31335" lon="5.87462">
        <ele>1265.4460449219</ele>
        <time>2017-01-15T09:28:49Z</time>
      </trkpt>
      <trkpt lat="45.31331" lon="5.87452">
        <ele>1270.4460449219</ele>
        <time>2017-01-15T09:29:03Z</time>
      </trkpt>
      <trkpt lat="45.3133" lon="5.87442">
        <ele>1275.4460449219</ele>
        <time>2017-01-15T09:29:16Z</time>
      </trkpt>
      <trkpt lat="45.31328" lon="5.87431">
        <ele>1278.4460449219</ele>
        <time>2017-01-15T09:29:27Z</time>
      </trkpt>
      <trkpt lat="45.31324" lon="5.87421">
        <ele>1280.4460449219</ele>
        <time>2017-01-15T09:29:39Z</time>
      </trkpt>
      <trkpt lat="45.31321" lon="5.87411">
        <ele>1285.4460449219</ele>
        <time>2017-01-15T09:29:48Z</time>
      </trkpt>
      <trkpt lat="45.31323" lon="5.87401">
        <ele>1287.4460449219</ele>
        <time>2017-01-15T09:29:57Z</time>
      </trkpt>
      <trkpt lat="45.31325" lon="5.87391">
        <ele>1291.4460449219</ele>
        <time>2017-01-15T09:30:08Z</time>
      </trkpt>
      <trkpt lat="45.31327" lon="5.8738">
        <ele>1292.4460449219</ele>
        <time>2017-01-15T09:30:15Z</time>
      </trkpt>
      <trkpt lat="45.31328" lon="5.87368">
        <ele>1297.4460449219</ele>
        <time>2017-01-15T09:30:25Z</time>
      </trkpt>
      <trkpt lat="45.31329" lon="5.87356">
        <ele>1297.4460449219</ele>
        <time>2017-01-15T09:30:32Z</time>
      </trkpt>
      <trkpt lat="45.31329" lon="5.87345">
        <ele>1297.4460449219</ele>
        <time>2017-01-15T09:30:39Z</time>
      </trkpt>
      <trkpt lat="45.31332" lon="5.87336">
        <ele>1298.4460449219</ele>
        <time>2017-01-15T09:30:44Z</time>
      </trkpt>
      <trkpt lat="45.31334" lon="5.87324">
        <ele>1301.4460449219</ele>
        <time>2017-01-15T09:30:54Z</time>
      </trkpt>
      <trkpt lat="45.31335" lon="5.87314">
        <ele>1302.4460449219</ele>
        <time>2017-01-15T09:31:02Z</time>
      </trkpt>
      <trkpt lat="45.31337" lon="5.87303">
        <ele>1305.4460449219</ele>
        <time>2017-01-15T09:31:10Z</time>
      </trkpt>
      <trkpt lat="45.31339" lon="5.87293">
        <ele>1307.4460449219</ele>
        <time>2017-01-15T09:31:17Z</time>
      </trkpt>
      <trkpt lat="45.31341" lon="5.87282">
        <ele>1310.4460449219</ele>
        <time>2017-01-15T09:31:24Z</time>
      </trkpt>
      <trkpt lat="45.31342" lon="5.87271">
        <ele>1311.4460449219</ele>
        <time>2017-01-15T09:31:33Z</time>
      </trkpt>
      <trkpt lat="45.31342" lon="5.87261">
        <ele>1313.4460449219</ele>
        <time>2017-01-15T09:31:42Z</time>
      </trkpt>
      <trkpt lat="45.31343" lon="5.87249">
        <ele>1317.4460449219</ele>
        <time>2017-01-15T09:31:52Z</time>
      </trkpt>
      <trkpt lat="45.31344" lon="5.87239">
        <ele>1318.4460449219</ele>
        <time>2017-01-15T09:32:03Z</time>
      </trkpt>
      <trkpt lat="45.31346" lon="5.87229">
        <ele>1321.4460449219</ele>
        <time>2017-01-15T09:32:10Z</time>
      </trkpt>
      <trkpt lat="45.31345" lon="5.87219">
        <ele>1324.4460449219</ele>
        <time>2017-01-15T09:32:21Z</time>
      </trkpt>
      <trkpt lat="45.31343" lon="5.87209">
        <ele>1328.4460449219</ele>
        <time>2017-01-15T09:32:32Z</time>
      </trkpt>
      <trkpt lat="45.31345" lon="5.87198">
        <ele>1330.4449462891</ele>
        <time>2017-01-15T09:33:01Z</time>
      </trkpt>
      <trkpt lat="45.31348" lon="5.87189">
        <ele>1332.4449462891</ele>
        <time>2017-01-15T09:33:10Z</time>
      </trkpt>
      <trkpt lat="45.31352" lon="5.8718">
        <ele>1334.4449462891</ele>
        <time>2017-01-15T09:33:19Z</time>
      </trkpt>
      <trkpt lat="45.31355" lon="5.8717">
        <ele>1335.4449462891</ele>
        <time>2017-01-15T09:33:33Z</time>
      </trkpt>
      <trkpt lat="45.31358" lon="5.8716">
        <ele>1341.4449462891</ele>
        <time>2017-01-15T09:33:48Z</time>
      </trkpt>
      <trkpt lat="45.31365" lon="5.87153">
        <ele>1343.4449462891</ele>
        <time>2017-01-15T09:33:59Z</time>
      </trkpt>
      <trkpt lat="45.31372" lon="5.8716">
        <ele>1344.4449462891</ele>
        <time>2017-01-15T09:35:12Z</time>
      </trkpt>
      <trkpt lat="45.31379" lon="5.87188">
        <ele>1339.4460449219</ele>
        <time>2017-01-15T09:35:18Z</time>
      </trkpt>
      <trkpt lat="45.31367" lon="5.87214">
        <ele>1334.4460449219</ele>
        <time>2017-01-15T09:35:22Z</time>
      </trkpt>
      <trkpt lat="45.31354" lon="5.8727">
        <ele>1323.4460449219</ele>
        <time>2017-01-15T09:35:27Z</time>
      </trkpt>
      <trkpt lat="45.31338" lon="5.87347">
        <ele>1307.4460449219</ele>
        <time>2017-01-15T09:35:32Z</time>
      </trkpt>
      <trkpt lat="45.3134" lon="5.874">
        <ele>1299.4460449219</ele>
        <time>2017-01-15T09:35:37Z</time>
      </trkpt>
      <trkpt lat="45.31335" lon="5.87448">
        <ele>1290.4460449219</ele>
        <time>2017-01-15T09:35:42Z</time>
      </trkpt>
      <trkpt lat="45.31345" lon="5.87462">
        <ele>1284.4460449219</ele>
        <time>2017-01-15T09:35:43Z</time>
      </trkpt>
      <trkpt lat="45.31363" lon="5.87524">
        <ele>1262.4460449219</ele>
        <time>2017-01-15T09:35:48Z</time>
      </trkpt>
      <trkpt lat="45.31366" lon="5.87609">
        <ele>1233.4460449219</ele>
        <time>2017-01-15T09:35:53Z</time>
      </trkpt>
      <trkpt lat="45.31362" lon="5.87643">
        <ele>1219.4460449219</ele>
        <time>2017-01-15T09:35:55Z</time>
      </trkpt>
      <trkpt lat="45.31376" lon="5.8773">
        <ele>1189.4460449219</ele>
        <time>2017-01-15T09:36:00Z</time>
      </trkpt>
      <trkpt lat="45.31387" lon="5.87826">
        <ele>1164.4460449219</ele>
        <time>2017-01-15T09:36:06Z</time>
      </trkpt>
      <trkpt lat="45.31384" lon="5.87859">
        <ele>1162.4460449219</ele>
        <time>2017-01-15T09:36:09Z</time>
      </trkpt>
      <trkpt lat="45.31378" lon="5.87936">
        <ele>1153.4470214844</ele>
        <time>2017-01-15T09:36:14Z</time>
      </trkpt>
      <trkpt lat="45.31368" lon="5.87988">
        <ele>1135.4470214844</ele>
        <time>2017-01-15T09:36:17Z</time>
      </trkpt>
      <trkpt lat="45.31369" lon="5.88003">
        <ele>1130.4470214844</ele>
        <time>2017-01-15T09:36:18Z</time>
      </trkpt>
      <trkpt lat="45.31385" lon="5.88077">
        <ele>1108.4470214844</ele>
        <time>2017-01-15T09:36:23Z</time>
      </trkpt>
      <trkpt lat="45.31413" lon="5.88153">
        <ele>1082.4470214844</ele>
        <time>2017-01-15T09:36:28Z</time>
      </trkpt>
      <trkpt lat="45.3141" lon="5.8817">
        <ele>1076.4470214844</ele>
        <time>2017-01-15T09:36:29Z</time>
      </trkpt>
      <trkpt lat="45.31409" lon="5.88207">
        <ele>1062.4470214844</ele>
        <time>2017-01-15T09:36:31Z</time>
      </trkpt>
      <trkpt lat="45.31396" lon="5.88236">
        <ele>1051.4470214844</ele>
        <time>2017-01-15T09:36:33Z</time>
      </trkpt>
      <trkpt lat="45.31378" lon="5.88309">
        <ele>1029.4470214844</ele>
        <time>2017-01-15T09:36:38Z</time>
      </trkpt>
      <trkpt lat="45.31371" lon="5.88384">
        <ele>1019.4470214844</ele>
        <time>2017-01-15T09:36:43Z</time>
      </trkpt>
      <trkpt lat="45.31363" lon="5.88425">
        <ele>1015.4470214844</ele>
        <time>2017-01-15T09:36:45Z</time>
      </trkpt>
      <trkpt lat="45.31373" lon="5.8849">
        <ele>1005.4470214844</ele>
        <time>2017-01-15T09:36:50Z</time>
      </trkpt>
      <trkpt lat="45.31376" lon="5.88516">
        <ele>1002.4470214844</ele>
        <time>2017-01-15T09:36:52Z</time>
      </trkpt>
      <trkpt lat="45.3138" lon="5.88505">
        <ele>983.44702148438</ele>
        <time>2017-01-15T09:38:22Z</time>
      </trkpt>
      <trkpt lat="45.31379" lon="5.88494">
        <ele>984.44702148438</ele>
        <time>2017-01-15T09:38:30Z</time>
      </trkpt>
      <trkpt lat="45.31377" lon="5.88484">
        <ele>982.44702148438</ele>
        <time>2017-01-15T09:38:36Z</time>
      </trkpt>
      <trkpt lat="45.31381" lon="5.88473">
        <ele>984.44702148438</ele>
        <time>2017-01-15T09:38:41Z</time>
      </trkpt>
      <trkpt lat="45.3138" lon="5.88462">
        <ele>989.44702148438</ele>
        <time>2017-01-15T09:38:52Z</time>
      </trkpt>
      <trkpt lat="45.31383" lon="5.88452">
        <ele>989.44702148438</ele>
        <time>2017-01-15T09:39:01Z</time>
      </trkpt>
      <trkpt lat="45.31384" lon="5.88441">
        <ele>990.44702148438</ele>
        <time>2017-01-15T09:39:11Z</time>
      </trkpt>
      <trkpt lat="45.31384" lon="5.8843">
        <ele>993.44702148438</ele>
        <time>2017-01-15T09:39:20Z</time>
      </trkpt>
      <trkpt lat="45.31385" lon="5.88419">
        <ele>992.44702148438</ele>
        <time>2017-01-15T09:39:30Z</time>
      </trkpt>
      <trkpt lat="45.31388" lon="5.88409">
        <ele>994.44702148438</ele>
        <time>2017-01-15T09:39:38Z</time>
      </trkpt>
      <trkpt lat="45.31391" lon="5.88399">
        <ele>996.44702148438</ele>
        <time>2017-01-15T09:39:46Z</time>
      </trkpt>
      <trkpt lat="45.31393" lon="5.88388">
        <ele>997.44702148438</ele>
        <time>2017-01-15T09:39:53Z</time>
      </trkpt>
      <trkpt lat="45.31396" lon="5.88379">
        <ele>997.44702148438</ele>
        <time>2017-01-15T09:40:06Z</time>
      </trkpt>
      <trkpt lat="45.31396" lon="5.88367">
        <ele>997.44702148438</ele>
        <time>2017-01-15T09:40:13Z</time>
      </trkpt>
      <trkpt lat="45.31396" lon="5.88357">
        <ele>1002.4470214844</ele>
        <time>2017-01-15T09:40:21Z</time>
      </trkpt>
      <trkpt lat="45.314" lon="5.88348">
        <ele>1003.4470214844</ele>
        <time>2017-01-15T09:40:40Z</time>
      </trkpt>
      <trkpt lat="45.31402" lon="5.88337">
        <ele>1006.4470214844</ele>
        <time>2017-01-15T09:40:51Z</time>
      </trkpt>
      <trkpt lat="45.31403" lon="5.88327">
        <ele>1012.4470214844</ele>
        <time>2017-01-15T09:40:57Z</time>
      </trkpt>
      <trkpt lat="45.31405" lon="5.88316">
        <ele>1018.4470214844</ele>
        <time>2017-01-15T09:41:13Z</time>
      </trkpt>
      <trkpt lat="45.31406" lon="5.88305">
        <ele>1021.4470214844</ele>
        <time>2017-01-15T09:41:21Z</time>
      </trkpt>
      <trkpt lat="45.31408" lon="5.88293">
        <ele>1025.4470214844</ele>
        <time>2017-01-15T09:41:29Z</time>
      </trkpt>
      <trkpt lat="45.3141" lon="5.88283">
        <ele>1026.4470214844</ele>
        <time>2017-01-15T09:41:39Z</time>
      </trkpt>
      <trkpt lat="45.31412" lon="5.88273">
        <ele>1030.4470214844</ele>
        <time>2017-01-15T09:41:49Z</time>
      </trkpt>
      <trkpt lat="45.31414" lon="5.88262">
        <ele>1037.4470214844</ele>
        <time>2017-01-15T09:42:00Z</time>
      </trkpt>
      <trkpt lat="45.31416" lon="5.8825">
        <ele>1037.4470214844</ele>
        <time>2017-01-15T09:42:12Z</time>
      </trkpt>
      <trkpt lat="45.31418" lon="5.8824">
        <ele>1043.4470214844</ele>
        <time>2017-01-15T09:42:21Z</time>
      </trkpt>
      <trkpt lat="45.31421" lon="5.88229">
        <ele>1045.4470214844</ele>
        <time>2017-01-15T09:42:30Z</time>
      </trkpt>
      <trkpt lat="45.31423" lon="5.88219">
        <ele>1049.4470214844</ele>
        <time>2017-01-15T09:42:44Z</time>
      </trkpt>
      <trkpt lat="45.31422" lon="5.88209">
        <ele>1049.4470214844</ele>
        <time>2017-01-15T09:42:58Z</time>
      </trkpt>
      <trkpt lat="45.31423" lon="5.88196">
        <ele>1052.4470214844</ele>
        <time>2017-01-15T09:43:08Z</time>
      </trkpt>
      <trkpt lat="45.31424" lon="5.88185">
        <ele>1055.4470214844</ele>
        <time>2017-01-15T09:43:20Z</time>
      </trkpt>
      <trkpt lat="45.31423" lon="5.88174">
        <ele>1056.4470214844</ele>
        <time>2017-01-15T09:43:30Z</time>
      </trkpt>
      <trkpt lat="45.31422" lon="5.88164">
        <ele>1060.4470214844</ele>
        <time>2017-01-15T09:43:41Z</time>
      </trkpt>
      <trkpt lat="45.3142" lon="5.88153">
        <ele>1061.4470214844</ele>
        <time>2017-01-15T09:44:05Z</time>
      </trkpt>
      <trkpt lat="45.31419" lon="5.88141">
        <ele>1063.4470214844</ele>
        <time>2017-01-15T09:44:15Z</time>
      </trkpt>
      <trkpt lat="45.3142" lon="5.8813">
        <ele>1065.4470214844</ele>
        <time>2017-01-15T09:44:29Z</time>
      </trkpt>
      <trkpt lat="45.31419" lon="5.88117">
        <ele>1068.4470214844</ele>
        <time>2017-01-15T09:44:42Z</time>
      </trkpt>
      <trkpt lat="45.31415" lon="5.88107">
        <ele>1071.4470214844</ele>
        <time>2017-01-15T09:44:55Z</time>
      </trkpt>
      <trkpt lat="45.31411" lon="5.88097">
        <ele>1076.4470214844</ele>
        <time>2017-01-15T09:45:04Z</time>
      </trkpt>
      <trkpt lat="45.31407" lon="5.88087">
        <ele>1078.4470214844</ele>
        <time>2017-01-15T09:45:23Z</time>
      </trkpt>
      <trkpt lat="45.31403" lon="5.88078">
        <ele>1082.4470214844</ele>
        <time>2017-01-15T09:45:31Z</time>
      </trkpt>
      <trkpt lat="45.31398" lon="5.88068">
        <ele>1087.4470214844</ele>
        <time>2017-01-15T09:45:51Z</time>
      </trkpt>
      <trkpt lat="45.31389" lon="5.88064">
        <ele>1091.4470214844</ele>
        <time>2017-01-15T09:46:01Z</time>
      </trkpt>
      <trkpt lat="45.31388" lon="5.88045">
        <ele>1091.4470214844</ele>
        <time>2017-01-15T09:46:17Z</time>
      </trkpt>
      <trkpt lat="45.31381" lon="5.88041">
        <ele>1093.4470214844</ele>
        <time>2017-01-15T09:46:23Z</time>
      </trkpt>
      <trkpt lat="45.31383" lon="5.88029">
        <ele>1098.4470214844</ele>
        <time>2017-01-15T09:46:32Z</time>
      </trkpt>
      <trkpt lat="45.31381" lon="5.88018">
        <ele>1105.4470214844</ele>
        <time>2017-01-15T09:46:49Z</time>
      </trkpt>
      <trkpt lat="45.31383" lon="5.88007">
        <ele>1108.4470214844</ele>
        <time>2017-01-15T09:46:57Z</time>
      </trkpt>
      <trkpt lat="45.31377" lon="5.87998">
        <ele>1112.4470214844</ele>
        <time>2017-01-15T09:47:16Z</time>
      </trkpt>
      <trkpt lat="45.31378" lon="5.87987">
        <ele>1116.4470214844</ele>
        <time>2017-01-15T09:47:30Z</time>
      </trkpt>
      <trkpt lat="45.31381" lon="5.87977">
        <ele>1117.4470214844</ele>
        <time>2017-01-15T09:47:33Z</time>
      </trkpt>
      <trkpt lat="45.3138" lon="5.87967">
        <ele>1123.4470214844</ele>
        <time>2017-01-15T09:47:39Z</time>
      </trkpt>
      <trkpt lat="45.3138" lon="5.87952">
        <ele>1123.4470214844</ele>
        <time>2017-01-15T09:48:05Z</time>
      </trkpt>
      <trkpt lat="45.31384" lon="5.87928">
        <ele>1128.4470214844</ele>
        <time>2017-01-15T09:48:20Z</time>
      </trkpt>
      <trkpt lat="45.31385" lon="5.87917">
        <ele>1134.4470214844</ele>
        <time>2017-01-15T09:48:29Z</time>
      </trkpt>
      <trkpt lat="45.31387" lon="5.87907">
        <ele>1140.4470214844</ele>
        <time>2017-01-15T09:48:41Z</time>
      </trkpt>
      <trkpt lat="45.31382" lon="5.879">
        <ele>1142.4470214844</ele>
        <time>2017-01-15T09:48:50Z</time>
      </trkpt>
      <trkpt lat="45.31376" lon="5.87892">
        <ele>1143.4460449219</ele>
        <time>2017-01-15T09:49:02Z</time>
      </trkpt>
      <trkpt lat="45.31376" lon="5.87881">
        <ele>1148.4460449219</ele>
        <time>2017-01-15T09:49:15Z</time>
      </trkpt>
      <trkpt lat="45.31375" lon="5.8787">
        <ele>1150.4460449219</ele>
        <time>2017-01-15T09:49:25Z</time>
      </trkpt>
      <trkpt lat="45.31373" lon="5.87859">
        <ele>1153.4460449219</ele>
        <time>2017-01-15T09:49:41Z</time>
      </trkpt>
      <trkpt lat="45.31374" lon="5.87848">
        <ele>1155.4460449219</ele>
        <time>2017-01-15T09:49:51Z</time>
      </trkpt>
      <trkpt lat="45.31373" lon="5.87838">
        <ele>1158.4460449219</ele>
        <time>2017-01-15T09:50:00Z</time>
      </trkpt>
      <trkpt lat="45.31372" lon="5.87828">
        <ele>1159.4460449219</ele>
        <time>2017-01-15T09:50:11Z</time>
      </trkpt>
      <trkpt lat="45.3137" lon="5.87818">
        <ele>1163.4460449219</ele>
        <time>2017-01-15T09:50:21Z</time>
      </trkpt>
      <trkpt lat="45.31371" lon="5.87807">
        <ele>1162.4460449219</ele>
        <time>2017-01-15T09:50:33Z</time>
      </trkpt>
      <trkpt lat="45.31369" lon="5.87797">
        <ele>1164.4460449219</ele>
        <time>2017-01-15T09:50:41Z</time>
      </trkpt>
      <trkpt lat="45.31368" lon="5.87786">
        <ele>1168.4460449219</ele>
        <time>2017-01-15T09:50:57Z</time>
      </trkpt>
      <trkpt lat="45.31367" lon="5.87774">
        <ele>1172.4460449219</ele>
        <time>2017-01-15T09:51:07Z</time>
      </trkpt>
      <trkpt lat="45.31366" lon="5.87762">
        <ele>1174.4460449219</ele>
        <time>2017-01-15T09:51:14Z</time>
      </trkpt>
      <trkpt lat="45.31366" lon="5.87751">
        <ele>1176.4460449219</ele>
        <time>2017-01-15T09:51:32Z</time>
      </trkpt>
      <trkpt lat="45.31367" lon="5.8774">
        <ele>1178.4460449219</ele>
        <time>2017-01-15T09:51:42Z</time>
      </trkpt>
      <trkpt lat="45.31366" lon="5.8773">
        <ele>1179.4460449219</ele>
        <time>2017-01-15T09:51:49Z</time>
      </trkpt>
      <trkpt lat="45.31365" lon="5.87718">
        <ele>1181.4460449219</ele>
        <time>2017-01-15T09:51:59Z</time>
      </trkpt>
      <trkpt lat="45.31363" lon="5.87708">
        <ele>1183.4460449219</ele>
        <time>2017-01-15T09:52:06Z</time>
      </trkpt>
      <trkpt lat="45.31364" lon="5.87698">
        <ele>1189.4460449219</ele>
        <time>2017-01-15T09:52:17Z</time>
      </trkpt>
      <trkpt lat="45.31366" lon="5.87687">
        <ele>1193.4460449219</ele>
        <time>2017-01-15T09:52:39Z</time>
      </trkpt>
      <trkpt lat="45.31365" lon="5.87677">
        <ele>1199.4460449219</ele>
        <time>2017-01-15T09:52:51Z</time>
      </trkpt>
      <trkpt lat="45.31365" lon="5.87666">
        <ele>1202.4460449219</ele>
        <time>2017-01-15T09:53:03Z</time>
      </trkpt>
      <trkpt lat="45.31365" lon="5.87656">
        <ele>1198.4460449219</ele>
        <time>2017-01-15T09:56:38Z</time>
      </trkpt>
      <trkpt lat="45.31364" lon="5.87644">
        <ele>1196.4460449219</ele>
        <time>2017-01-15T09:56:47Z</time>
      </trkpt>
      <trkpt lat="45.31365" lon="5.87633">
        <ele>1206.4460449219</ele>
        <time>2017-01-15T09:57:05Z</time>
      </trkpt>
      <trkpt lat="45.31361" lon="5.87622">
        <ele>1205.4460449219</ele>
        <time>2017-01-15T09:57:12Z</time>
      </trkpt>
      <trkpt lat="45.31363" lon="5.87611">
        <ele>1212.4460449219</ele>
        <time>2017-01-15T09:57:28Z</time>
      </trkpt>
      <trkpt lat="45.31359" lon="5.876">
        <ele>1214.4460449219</ele>
        <time>2017-01-15T09:57:39Z</time>
      </trkpt>
      <trkpt lat="45.31358" lon="5.87589">
        <ele>1215.4460449219</ele>
        <time>2017-01-15T09:57:54Z</time>
      </trkpt>
      <trkpt lat="45.31356" lon="5.87578">
        <ele>1216.4460449219</ele>
        <time>2017-01-15T09:58:02Z</time>
      </trkpt>
      <trkpt lat="45.31354" lon="5.87568">
        <ele>1219.4460449219</ele>
        <time>2017-01-15T09:58:10Z</time>
      </trkpt>
      <trkpt lat="45.31353" lon="5.87558">
        <ele>1229.4460449219</ele>
        <time>2017-01-15T09:58:29Z</time>
      </trkpt>
      <trkpt lat="45.31352" lon="5.87547">
        <ele>1231.4460449219</ele>
        <time>2017-01-15T09:58:42Z</time>
      </trkpt>
      <trkpt lat="45.31352" lon="5.87536">
        <ele>1232.4460449219</ele>
        <time>2017-01-15T09:58:54Z</time>
      </trkpt>
      <trkpt lat="45.31348" lon="5.87527">
        <ele>1241.4460449219</ele>
        <time>2017-01-15T09:59:08Z</time>
      </trkpt>
      <trkpt lat="45.31346" lon="5.87517">
        <ele>1244.4460449219</ele>
        <time>2017-01-15T09:59:17Z</time>
      </trkpt>
      <trkpt lat="45.31344" lon="5.87506">
        <ele>1246.4460449219</ele>
        <time>2017-01-15T09:59:29Z</time>
      </trkpt>
      <trkpt lat="45.31342" lon="5.87494">
        <ele>1252.4460449219</ele>
        <time>2017-01-15T09:59:45Z</time>
      </trkpt>
      <trkpt lat="45.31339" lon="5.87484">
        <ele>1255.4460449219</ele>
        <time>2017-01-15T09:59:56Z</time>
      </trkpt>
      <trkpt lat="45.31339" lon="5.87474">
        <ele>1259.4460449219</ele>
        <time>2017-01-15T10:00:20Z</time>
      </trkpt>
      <trkpt lat="45.31336" lon="5.87463">
        <ele>1268.4460449219</ele>
        <time>2017-01-15T10:00:33Z</time>
      </trkpt>
      <trkpt lat="45.31333" lon="5.87454">
        <ele>1272.4460449219</ele>
        <time>2017-01-15T10:00:41Z</time>
      </trkpt>
      <trkpt lat="45.31328" lon="5.87444">
        <ele>1273.4460449219</ele>
        <time>2017-01-15T10:00:46Z</time>
      </trkpt>
      <trkpt lat="45.31326" lon="5.87431">
        <ele>1278.4460449219</ele>
        <time>2017-01-15T10:01:08Z</time>
      </trkpt>
      <trkpt lat="45.31323" lon="5.8742">
        <ele>1277.4460449219</ele>
        <time>2017-01-15T10:01:18Z</time>
      </trkpt>
      <trkpt lat="45.31327" lon="5.87409">
        <ele>1283.4460449219</ele>
        <time>2017-01-15T10:01:32Z</time>
      </trkpt>
      <trkpt lat="45.31327" lon="5.87398">
        <ele>1284.4460449219</ele>
        <time>2017-01-15T10:01:43Z</time>
      </trkpt>
      <trkpt lat="45.3133" lon="5.87389">
        <ele>1287.4460449219</ele>
        <time>2017-01-15T10:01:50Z</time>
      </trkpt>
      <trkpt lat="45.31334" lon="5.87379">
        <ele>1286.4460449219</ele>
        <time>2017-01-15T10:01:56Z</time>
      </trkpt>
      <trkpt lat="45.31335" lon="5.87368">
        <ele>1282.4460449219</ele>
        <time>2017-01-15T10:02:03Z</time>
      </trkpt>
      <trkpt lat="45.31336" lon="5.87354">
        <ele>1282.4460449219</ele>
        <time>2017-01-15T10:02:09Z</time>
      </trkpt>
      <trkpt lat="45.31336" lon="5.87343">
        <ele>1284.4460449219</ele>
        <time>2017-01-15T10:02:15Z</time>
      </trkpt>
      <trkpt lat="45.31336" lon="5.87333">
        <ele>1287.4460449219</ele>
        <time>2017-01-15T10:02:21Z</time>
      </trkpt>
      <trkpt lat="45.3134" lon="5.87323">
        <ele>1293.4460449219</ele>
        <time>2017-01-15T10:02:31Z</time>
      </trkpt>
      <trkpt lat="45.31343" lon="5.87311">
        <ele>1294.4460449219</ele>
        <time>2017-01-15T10:02:40Z</time>
      </trkpt>
      <trkpt lat="45.31342" lon="5.873">
        <ele>1295.4460449219</ele>
        <time>2017-01-15T10:02:49Z</time>
      </trkpt>
      <trkpt lat="45.3134" lon="5.87289">
        <ele>1298.4460449219</ele>
        <time>2017-01-15T10:02:56Z</time>
      </trkpt>
      <trkpt lat="45.31343" lon="5.87279">
        <ele>1301.4460449219</ele>
        <time>2017-01-15T10:03:08Z</time>
      </trkpt>
      <trkpt lat="45.31345" lon="5.87268">
        <ele>1305.4460449219</ele>
        <time>2017-01-15T10:03:16Z</time>
      </trkpt>
      <trkpt lat="45.31346" lon="5.87258">
        <ele>1304.4460449219</ele>
        <time>2017-01-15T10:03:25Z</time>
      </trkpt>
      <trkpt lat="45.31347" lon="5.87247">
        <ele>1310.4460449219</ele>
        <time>2017-01-15T10:03:37Z</time>
      </trkpt>
      <trkpt lat="45.31349" lon="5.87235">
        <ele>1312.4460449219</ele>
        <time>2017-01-15T10:03:45Z</time>
      </trkpt>
      <trkpt lat="45.31349" lon="5.87225">
        <ele>1315.4460449219</ele>
        <time>2017-01-15T10:03:54Z</time>
      </trkpt>
      <trkpt lat="45.31347" lon="5.87214">
        <ele>1315.4460449219</ele>
        <time>2017-01-15T10:04:02Z</time>
      </trkpt>
      <trkpt lat="45.31344" lon="5.87205">
        <ele>1315.4460449219</ele>
        <time>2017-01-15T10:04:14Z</time>
      </trkpt>
      <trkpt lat="45.31345" lon="5.87193">
        <ele>1323.4449462891</ele>
        <time>2017-01-15T10:04:53Z</time>
      </trkpt>
      <trkpt lat="45.3135" lon="5.87185">
        <ele>1324.4449462891</ele>
        <time>2017-01-15T10:05:02Z</time>
      </trkpt>
      <trkpt lat="45.31354" lon="5.87176">
        <ele>1330.4449462891</ele>
        <time>2017-01-15T10:05:16Z</time>
      </trkpt>
      <trkpt lat="45.31358" lon="5.87166">
        <ele>1329.4449462891</ele>
        <time>2017-01-15T10:05:23Z</time>
      </trkpt>
      <trkpt lat="45.31366" lon="5.87161">
        <ele>1335.4449462891</ele>
        <time>2017-01-15T10:05:31Z</time>
      </trkpt>
      <trkpt lat="45.31371" lon="5.87154">
        <ele>1330.4449462891</ele>
        <time>2017-01-15T10:05:40Z</time>
      </trkpt>
      <trkpt lat="45.31378" lon="5.8715">
        <ele>1331.4449462891</ele>
        <time>2017-01-15T10:07:19Z</time>
      </trkpt>
      <trkpt lat="45.31387" lon="5.87155">
        <ele>1330.4460449219</ele>
        <time>2017-01-15T10:07:25Z</time>
      </trkpt>
      <trkpt lat="45.31384" lon="5.87183">
        <ele>1322.4460449219</ele>
        <time>2017-01-15T10:07:30Z</time>
      </trkpt>
      <trkpt lat="45.3138" lon="5.87198">
        <ele>1322.4460449219</ele>
        <time>2017-01-15T10:07:32Z</time>
      </trkpt>
      <trkpt lat="45.3136" lon="5.87235">
        <ele>1319.4460449219</ele>
        <time>2017-01-15T10:07:37Z</time>
      </trkpt>
      <trkpt lat="45.3134" lon="5.87308">
        <ele>1301.4460449219</ele>
        <time>2017-01-15T10:07:42Z</time>
      </trkpt>
      <trkpt lat="45.31334" lon="5.87384">
        <ele>1286.4460449219</ele>
        <time>2017-01-15T10:07:48Z</time>
      </trkpt>
      <trkpt lat="45.31337" lon="5.87445">
        <ele>1268.4460449219</ele>
        <time>2017-01-15T10:07:54Z</time>
      </trkpt>
      <trkpt lat="45.31324" lon="5.87496">
        <ele>1245.4460449219</ele>
        <time>2017-01-15T10:07:59Z</time>
      </trkpt>
      <trkpt lat="45.31296" lon="5.87544">
        <ele>1228.4460449219</ele>
        <time>2017-01-15T10:08:04Z</time>
      </trkpt>
      <trkpt lat="45.31293" lon="5.8761">
        <ele>1211.4460449219</ele>
        <time>2017-01-15T10:08:09Z</time>
      </trkpt>
      <trkpt lat="45.31299" lon="5.87665">
        <ele>1202.4460449219</ele>
        <time>2017-01-15T10:08:14Z</time>
      </trkpt>
      <trkpt lat="45.31313" lon="5.87741">
        <ele>1189.4460449219</ele>
        <time>2017-01-15T10:08:19Z</time>
      </trkpt>
      <trkpt lat="45.31311" lon="5.87823">
        <ele>1182.4460449219</ele>
        <time>2017-01-15T10:08:24Z</time>
      </trkpt>
      <trkpt lat="45.3132" lon="5.87904">
        <ele>1162.4460449219</ele>
        <time>2017-01-15T10:08:29Z</time>
      </trkpt>
      <trkpt lat="45.31306" lon="5.87974">
        <ele>1147.4460449219</ele>
        <time>2017-01-15T10:08:34Z</time>
      </trkpt>
      <trkpt lat="45.31284" lon="5.88027">
        <ele>1135.4460449219</ele>
        <time>2017-01-15T10:08:39Z</time>
      </trkpt>
      <trkpt lat="45.31255" lon="5.88088">
        <ele>1125.4470214844</ele>
        <time>2017-01-15T10:08:44Z</time>
      </trkpt>
      <trkpt lat="45.31244" lon="5.88187">
        <ele>1114.4470214844</ele>
        <time>2017-01-15T10:08:49Z</time>
      </trkpt>
      <trkpt lat="45.31257" lon="5.88238">
        <ele>1107.4470214844</ele>
        <time>2017-01-15T10:08:52Z</time>
      </trkpt>
      <trkpt lat="45.31285" lon="5.88308">
        <ele>1098.4470214844</ele>
        <time>2017-01-15T10:08:58Z</time>
      </trkpt>
      <trkpt lat="45.31296" lon="5.8838">
        <ele>1091.4470214844</ele>
        <time>2017-01-15T10:09:01Z</time>
      </trkpt>
      <trkpt lat="45.3132" lon="5.88421">
        <ele>1081.4470214844</ele>
        <time>2017-01-15T10:09:05Z</time>
      </trkpt>
      <trkpt lat="45.31322" lon="5.88433">
        <ele>1077.4470214844</ele>
        <time>2017-01-15T10:09:06Z</time>
      </trkpt>
      <trkpt lat="45.3134" lon="5.88507">
        <ele>1070.4470214844</ele>
        <time>2017-01-15T10:09:11Z</time>
      </trkpt>
      <trkpt lat="45.31364" lon="5.88582">
        <ele>1061.4470214844</ele>
        <time>2017-01-15T10:09:16Z</time>
      </trkpt>
      <trkpt lat="45.31362" lon="5.88549">
        <ele>1046.4470214844</ele>
        <time>2017-01-15T10:09:17Z</time>
      </trkpt>
      <trkpt lat="45.31373" lon="5.88547">
        <ele>1039.4470214844</ele>
        <time>2017-01-15T10:09:19Z</time>
      </trkpt>
      <trkpt lat="45.31377" lon="5.88529">
        <ele>1017.4470214844</ele>
        <time>2017-01-15T10:09:30Z</time>
      </trkpt>
      <trkpt lat="45.31381" lon="5.8852">
        <ele>986.44702148438</ele>
        <time>2017-01-15T10:11:29Z</time>
      </trkpt>
      <trkpt lat="45.31381" lon="5.88531">
        <ele>978.44702148438</ele>
        <time>2017-01-15T10:12:32Z</time>
      </trkpt>
      <trkpt lat="45.31384" lon="5.88556">
        <ele>976.44702148438</ele>
        <time>2017-01-15T10:12:38Z</time>
      </trkpt>
      <trkpt lat="45.31401" lon="5.88562">
        <ele>976.44702148438</ele>
        <time>2017-01-15T10:12:46Z</time>
      </trkpt>
      <trkpt lat="45.31408" lon="5.88565">
        <ele>976.44702148438</ele>
        <time>2017-01-15T10:12:53Z</time>
      </trkpt>
      <trkpt lat="45.31414" lon="5.88574">
        <ele>976.44702148438</ele>
        <time>2017-01-15T10:13:00Z</time>
      </trkpt>
      <trkpt lat="45.31407" lon="5.88568">
        <ele>977.44702148438</ele>
        <time>2017-01-15T10:14:31Z</time>
      </trkpt>
      <trkpt lat="45.31399" lon="5.88567">
        <ele>978.44702148438</ele>
        <time>2017-01-15T10:14:37Z</time>
      </trkpt>
      <trkpt lat="45.31392" lon="5.88562">
        <ele>978.44702148438</ele>
        <time>2017-01-15T10:14:42Z</time>
      </trkpt>
      <trkpt lat="45.31385" lon="5.88557">
        <ele>977.44702148438</ele>
        <time>2017-01-15T10:14:47Z</time>
      </trkpt>
      <trkpt lat="45.31381" lon="5.88548">
        <ele>975.44702148438</ele>
        <time>2017-01-15T10:14:52Z</time>
      </trkpt>
      <trkpt lat="45.31382" lon="5.88536">
        <ele>973.44702148438</ele>
        <time>2017-01-15T10:14:59Z</time>
      </trkpt>
      <trkpt lat="45.31382" lon="5.88526">
        <ele>973.44702148438</ele>
        <time>2017-01-15T10:15:05Z</time>
      </trkpt>
      <trkpt lat="45.31381" lon="5.88513">
        <ele>974.44702148438</ele>
        <time>2017-01-15T10:15:11Z</time>
      </trkpt>
      <trkpt lat="45.31382" lon="5.88503">
        <ele>972.44702148438</ele>
        <time>2017-01-15T10:15:16Z</time>
      </trkpt>
      <trkpt lat="45.31382" lon="5.8849">
        <ele>973.44702148438</ele>
        <time>2017-01-15T10:15:23Z</time>
      </trkpt>
      <trkpt lat="45.31381" lon="5.88479">
        <ele>974.44702148438</ele>
        <time>2017-01-15T10:15:29Z</time>
      </trkpt>
      <trkpt lat="45.31381" lon="5.88467">
        <ele>972.44702148438</ele>
        <time>2017-01-15T10:15:35Z</time>
      </trkpt>
      <trkpt lat="45.31382" lon="5.88457">
        <ele>974.44702148438</ele>
        <time>2017-01-15T10:15:41Z</time>
      </trkpt>
      <trkpt lat="45.31383" lon="5.88447">
        <ele>976.44702148438</ele>
        <time>2017-01-15T10:15:47Z</time>
      </trkpt>
      <trkpt lat="45.31386" lon="5.88437">
        <ele>978.44702148438</ele>
        <time>2017-01-15T10:15:56Z</time>
      </trkpt>
      <trkpt lat="45.31388" lon="5.88426">
        <ele>983.44702148438</ele>
        <time>2017-01-15T10:16:03Z</time>
      </trkpt>
      <trkpt lat="45.31391" lon="5.88416">
        <ele>985.44702148438</ele>
        <time>2017-01-15T10:16:11Z</time>
      </trkpt>
      <trkpt lat="45.31392" lon="5.88405">
        <ele>987.44702148438</ele>
        <time>2017-01-15T10:16:20Z</time>
      </trkpt>
      <trkpt lat="45.31395" lon="5.88394">
        <ele>988.44702148438</ele>
        <time>2017-01-15T10:16:29Z</time>
      </trkpt>
      <trkpt lat="45.31397" lon="5.88383">
        <ele>989.44702148438</ele>
        <time>2017-01-15T10:16:37Z</time>
      </trkpt>
      <trkpt lat="45.31402" lon="5.88374">
        <ele>990.44702148438</ele>
        <time>2017-01-15T10:16:44Z</time>
      </trkpt>
      <trkpt lat="45.31399" lon="5.88364">
        <ele>993.44702148438</ele>
        <time>2017-01-15T10:16:56Z</time>
      </trkpt>
      <trkpt lat="45.31403" lon="5.88354">
        <ele>995.44702148438</ele>
        <time>2017-01-15T10:17:06Z</time>
      </trkpt>
      <trkpt lat="45.31402" lon="5.88343">
        <ele>1000.4470214844</ele>
        <time>2017-01-15T10:17:18Z</time>
      </trkpt>
      <trkpt lat="45.31406" lon="5.88334">
        <ele>1006.4470214844</ele>
        <time>2017-01-15T10:17:27Z</time>
      </trkpt>
      <trkpt lat="45.31408" lon="5.88324">
        <ele>1010.4470214844</ele>
        <time>2017-01-15T10:17:34Z</time>
      </trkpt>
      <trkpt lat="45.31407" lon="5.88312">
        <ele>1013.4470214844</ele>
        <time>2017-01-15T10:17:45Z</time>
      </trkpt>
      <trkpt lat="45.31411" lon="5.88303">
        <ele>1018.4470214844</ele>
        <time>2017-01-15T10:17:56Z</time>
      </trkpt>
      <trkpt lat="45.31414" lon="5.88293">
        <ele>1022.4470214844</ele>
        <time>2017-01-15T10:18:07Z</time>
      </trkpt>
      <trkpt lat="45.31413" lon="5.88282">
        <ele>1023.4470214844</ele>
        <time>2017-01-15T10:18:17Z</time>
      </trkpt>
      <trkpt lat="45.31413" lon="5.88272">
        <ele>1026.4470214844</ele>
        <time>2017-01-15T10:18:33Z</time>
      </trkpt>
      <trkpt lat="45.31417" lon="5.88263">
        <ele>1030.4470214844</ele>
        <time>2017-01-15T10:18:43Z</time>
      </trkpt>
      <trkpt lat="45.31417" lon="5.88252">
        <ele>1034.4470214844</ele>
        <time>2017-01-15T10:18:57Z</time>
      </trkpt>
      <trkpt lat="45.31417" lon="5.88241">
        <ele>1035.4470214844</ele>
        <time>2017-01-15T10:19:07Z</time>
      </trkpt>
      <trkpt lat="45.31418" lon="5.8823">
        <ele>1036.4470214844</ele>
        <time>2017-01-15T10:19:18Z</time>
      </trkpt>
      <trkpt lat="45.31421" lon="5.8822">
        <ele>1038.4470214844</ele>
        <time>2017-01-15T10:19:29Z</time>
      </trkpt>
      <trkpt lat="45.31423" lon="5.8821">
        <ele>1044.4470214844</ele>
        <time>2017-01-15T10:19:40Z</time>
      </trkpt>
      <trkpt lat="45.31425" lon="5.88199">
        <ele>1050.4470214844</ele>
        <time>2017-01-15T10:19:51Z</time>
      </trkpt>
      <trkpt lat="45.31423" lon="5.88188">
        <ele>1051.4470214844</ele>
        <time>2017-01-15T10:19:58Z</time>
      </trkpt>
      <trkpt lat="45.31423" lon="5.88177">
        <ele>1052.4470214844</ele>
        <time>2017-01-15T10:20:07Z</time>
      </trkpt>
      <trkpt lat="45.31422" lon="5.88167">
        <ele>1054.4470214844</ele>
        <time>2017-01-15T10:20:18Z</time>
      </trkpt>
      <trkpt lat="45.31427" lon="5.88159">
        <ele>1058.4470214844</ele>
        <time>2017-01-15T10:20:32Z</time>
      </trkpt>
      <trkpt lat="45.31424" lon="5.88148">
        <ele>1059.4470214844</ele>
        <time>2017-01-15T10:20:38Z</time>
      </trkpt>
      <trkpt lat="45.3142" lon="5.88139">
        <ele>1063.4470214844</ele>
        <time>2017-01-15T10:20:52Z</time>
      </trkpt>
      <trkpt lat="45.3142" lon="5.88128">
        <ele>1070.4470214844</ele>
        <time>2017-01-15T10:21:07Z</time>
      </trkpt>
      <trkpt lat="45.31417" lon="5.88118">
        <ele>1073.4470214844</ele>
        <time>2017-01-15T10:21:21Z</time>
      </trkpt>
      <trkpt lat="45.31414" lon="5.88107">
        <ele>1074.4470214844</ele>
        <time>2017-01-15T10:21:29Z</time>
      </trkpt>
      <trkpt lat="45.31411" lon="5.88098">
        <ele>1083.4470214844</ele>
        <time>2017-01-15T10:21:57Z</time>
      </trkpt>
      <trkpt lat="45.31404" lon="5.8809">
        <ele>1083.4470214844</ele>
        <time>2017-01-15T10:22:14Z</time>
      </trkpt>
      <trkpt lat="45.31402" lon="5.88069">
        <ele>1084.4470214844</ele>
        <time>2017-01-15T10:22:31Z</time>
      </trkpt>
      <trkpt lat="45.31396" lon="5.88062">
        <ele>1088.4470214844</ele>
        <time>2017-01-15T10:22:59Z</time>
      </trkpt>
      <trkpt lat="45.31389" lon="5.88042">
        <ele>1087.4470214844</ele>
        <time>2017-01-15T10:23:07Z</time>
      </trkpt>
      <trkpt lat="45.3138" lon="5.88019">
        <ele>1091.4470214844</ele>
        <time>2017-01-15T10:25:05Z</time>
      </trkpt>
      <trkpt lat="45.31374" lon="5.88011">
        <ele>1102.4470214844</ele>
        <time>2017-01-15T10:25:30Z</time>
      </trkpt>
      <trkpt lat="45.31373" lon="5.88">
        <ele>1105.4470214844</ele>
        <time>2017-01-15T10:25:35Z</time>
      </trkpt>
      <trkpt lat="45.31373" lon="5.8799">
        <ele>1107.4470214844</ele>
        <time>2017-01-15T10:25:40Z</time>
      </trkpt>
      <trkpt lat="45.31373" lon="5.87977">
        <ele>1110.4470214844</ele>
        <time>2017-01-15T10:25:48Z</time>
      </trkpt>
      <trkpt lat="45.31375" lon="5.87967">
        <ele>1113.4470214844</ele>
        <time>2017-01-15T10:26:01Z</time>
      </trkpt>
      <trkpt lat="45.31377" lon="5.87957">
        <ele>1121.4470214844</ele>
        <time>2017-01-15T10:26:21Z</time>
      </trkpt>
      <trkpt lat="45.31377" lon="5.87946">
        <ele>1123.4470214844</ele>
        <time>2017-01-15T10:26:43Z</time>
      </trkpt>
      <trkpt lat="45.31379" lon="5.87936">
        <ele>1129.4470214844</ele>
        <time>2017-01-15T10:26:53Z</time>
      </trkpt>
      <trkpt lat="45.31382" lon="5.87925">
        <ele>1134.4470214844</ele>
        <time>2017-01-15T10:27:00Z</time>
      </trkpt>
      <trkpt lat="45.31384" lon="5.87915">
        <ele>1134.4470214844</ele>
        <time>2017-01-15T10:27:07Z</time>
      </trkpt>
      <trkpt lat="45.31386" lon="5.87905">
        <ele>1140.4470214844</ele>
        <time>2017-01-15T10:27:27Z</time>
      </trkpt>
      <trkpt lat="45.3138" lon="5.87893">
        <ele>1140.4470214844</ele>
        <time>2017-01-15T10:27:39Z</time>
      </trkpt>
      <trkpt lat="45.31377" lon="5.87881">
        <ele>1140.4460449219</ele>
        <time>2017-01-15T10:27:46Z</time>
      </trkpt>
      <trkpt lat="45.31376" lon="5.8787">
        <ele>1144.4460449219</ele>
        <time>2017-01-15T10:27:55Z</time>
      </trkpt>
      <trkpt lat="45.31374" lon="5.87858">
        <ele>1148.4460449219</ele>
        <time>2017-01-15T10:28:12Z</time>
      </trkpt>
      <trkpt lat="45.31374" lon="5.87847">
        <ele>1148.4460449219</ele>
        <time>2017-01-15T10:28:19Z</time>
      </trkpt>
      <trkpt lat="45.31372" lon="5.87836">
        <ele>1152.4460449219</ele>
        <time>2017-01-15T10:28:30Z</time>
      </trkpt>
      <trkpt lat="45.31372" lon="5.87825">
        <ele>1153.4460449219</ele>
        <time>2017-01-15T10:28:37Z</time>
      </trkpt>
      <trkpt lat="45.3137" lon="5.87815">
        <ele>1155.4460449219</ele>
        <time>2017-01-15T10:28:50Z</time>
      </trkpt>
      <trkpt lat="45.31368" lon="5.87803">
        <ele>1157.4460449219</ele>
        <time>2017-01-15T10:28:58Z</time>
      </trkpt>
      <trkpt lat="45.31368" lon="5.87792">
        <ele>1159.4460449219</ele>
        <time>2017-01-15T10:29:40Z</time>
      </trkpt>
      <trkpt lat="45.31367" lon="5.8778">
        <ele>1163.4460449219</ele>
        <time>2017-01-15T10:29:49Z</time>
      </trkpt>
      <trkpt lat="45.31368" lon="5.87769">
        <ele>1166.4460449219</ele>
        <time>2017-01-15T10:29:55Z</time>
      </trkpt>
      <trkpt lat="45.31368" lon="5.87758">
        <ele>1165.4460449219</ele>
        <time>2017-01-15T10:30:05Z</time>
      </trkpt>
      <trkpt lat="45.31372" lon="5.87747">
        <ele>1165.4460449219</ele>
        <time>2017-01-15T10:30:15Z</time>
      </trkpt>
      <trkpt lat="45.31369" lon="5.87737">
        <ele>1169.4460449219</ele>
        <time>2017-01-15T10:30:24Z</time>
      </trkpt>
      <trkpt lat="45.31371" lon="5.87727">
        <ele>1171.4460449219</ele>
        <time>2017-01-15T10:30:32Z</time>
      </trkpt>
      <trkpt lat="45.31369" lon="5.87715">
        <ele>1177.4460449219</ele>
        <time>2017-01-15T10:30:43Z</time>
      </trkpt>
      <trkpt lat="45.31371" lon="5.87704">
        <ele>1183.4460449219</ele>
        <time>2017-01-15T10:30:52Z</time>
      </trkpt>
      <trkpt lat="45.31369" lon="5.87694">
        <ele>1187.4460449219</ele>
        <time>2017-01-15T10:31:01Z</time>
      </trkpt>
      <trkpt lat="45.31367" lon="5.87683">
        <ele>1191.4460449219</ele>
        <time>2017-01-15T10:31:22Z</time>
      </trkpt>
      <trkpt lat="45.31367" lon="5.87673">
        <ele>1190.4460449219</ele>
        <time>2017-01-15T10:31:30Z</time>
      </trkpt>
      <trkpt lat="45.31367" lon="5.87662">
        <ele>1194.4460449219</ele>
        <time>2017-01-15T10:31:42Z</time>
      </trkpt>
      <trkpt lat="45.31364" lon="5.87651">
        <ele>1198.4460449219</ele>
        <time>2017-01-15T10:31:59Z</time>
      </trkpt>
      <trkpt lat="45.31362" lon="5.87642">
        <ele>1199.4460449219</ele>
        <time>2017-01-15T10:32:08Z</time>
      </trkpt>
      <trkpt lat="45.31362" lon="5.87631">
        <ele>1204.4460449219</ele>
        <time>2017-01-15T10:32:23Z</time>
      </trkpt>
      <trkpt lat="45.31362" lon="5.8762">
        <ele>1210.4460449219</ele>
        <time>2017-01-15T10:32:42Z</time>
      </trkpt>
      <trkpt lat="45.3136" lon="5.8761">
        <ele>1211.4460449219</ele>
        <time>2017-01-15T10:32:51Z</time>
      </trkpt>
      <trkpt lat="45.3136" lon="5.87599">
        <ele>1216.4460449219</ele>
        <time>2017-01-15T10:33:06Z</time>
      </trkpt>
      <trkpt lat="45.31361" lon="5.87588">
        <ele>1217.4460449219</ele>
        <time>2017-01-15T10:33:16Z</time>
      </trkpt>
      <trkpt lat="45.31358" lon="5.87578">
        <ele>1221.4460449219</ele>
        <time>2017-01-15T10:33:29Z</time>
      </trkpt>
      <trkpt lat="45.31356" lon="5.87567">
        <ele>1226.4460449219</ele>
        <time>2017-01-15T10:33:44Z</time>
      </trkpt>
      <trkpt lat="45.31352" lon="5.87559">
        <ele>1229.4460449219</ele>
        <time>2017-01-15T10:33:53Z</time>
      </trkpt>
      <trkpt lat="45.31349" lon="5.87549">
        <ele>1231.4460449219</ele>
        <time>2017-01-15T10:34:03Z</time>
      </trkpt>
      <trkpt lat="45.31351" lon="5.87539">
        <ele>1234.4460449219</ele>
        <time>2017-01-15T10:34:13Z</time>
      </trkpt>
      <trkpt lat="45.31349" lon="5.87529">
        <ele>1238.4460449219</ele>
        <time>2017-01-15T10:34:28Z</time>
      </trkpt>
      <trkpt lat="45.31345" lon="5.87518">
        <ele>1246.4460449219</ele>
        <time>2017-01-15T10:34:49Z</time>
      </trkpt>
      <trkpt lat="45.31342" lon="5.87508">
        <ele>1249.4460449219</ele>
        <time>2017-01-15T10:35:02Z</time>
      </trkpt>
      <trkpt lat="45.31339" lon="5.87498">
        <ele>1255.4460449219</ele>
        <time>2017-01-15T10:35:18Z</time>
      </trkpt>
      <trkpt lat="45.31337" lon="5.87488">
        <ele>1260.4460449219</ele>
        <time>2017-01-15T10:35:31Z</time>
      </trkpt>
      <trkpt lat="45.31336" lon="5.87478">
        <ele>1257.4460449219</ele>
        <time>2017-01-15T10:35:55Z</time>
      </trkpt>
      <trkpt lat="45.31332" lon="5.87468">
        <ele>1263.4460449219</ele>
        <time>2017-01-15T10:36:03Z</time>
      </trkpt>
      <trkpt lat="45.31331" lon="5.87457">
        <ele>1267.4460449219</ele>
        <time>2017-01-15T10:36:13Z</time>
      </trkpt>
      <trkpt lat="45.3133" lon="5.87446">
        <ele>1269.4460449219</ele>
        <time>2017-01-15T10:36:24Z</time>
      </trkpt>
      <trkpt lat="45.31325" lon="5.87439">
        <ele>1272.4460449219</ele>
        <time>2017-01-15T10:36:35Z</time>
      </trkpt>
      <trkpt lat="45.31321" lon="5.87428">
        <ele>1277.4460449219</ele>
        <time>2017-01-15T10:36:57Z</time>
      </trkpt>
      <trkpt lat="45.31322" lon="5.87417">
        <ele>1275.4460449219</ele>
        <time>2017-01-15T10:37:04Z</time>
      </trkpt>
      <trkpt lat="45.31323" lon="5.87406">
        <ele>1276.4460449219</ele>
        <time>2017-01-15T10:37:14Z</time>
      </trkpt>
      <trkpt lat="45.31323" lon="5.87396">
        <ele>1279.4460449219</ele>
        <time>2017-01-15T10:37:25Z</time>
      </trkpt>
      <trkpt lat="45.31326" lon="5.87386">
        <ele>1280.4460449219</ele>
        <time>2017-01-15T10:37:33Z</time>
      </trkpt>
      <trkpt lat="45.31328" lon="5.87376">
        <ele>1281.4460449219</ele>
        <time>2017-01-15T10:37:41Z</time>
      </trkpt>
      <trkpt lat="45.3133" lon="5.87365">
        <ele>1281.4460449219</ele>
        <time>2017-01-15T10:37:47Z</time>
      </trkpt>
      <trkpt lat="45.31332" lon="5.87355">
        <ele>1282.4460449219</ele>
        <time>2017-01-15T10:37:52Z</time>
      </trkpt>
      <trkpt lat="45.31331" lon="5.87345">
        <ele>1282.4460449219</ele>
        <time>2017-01-15T10:37:58Z</time>
      </trkpt>
      <trkpt lat="45.31329" lon="5.87334">
        <ele>1282.4460449219</ele>
        <time>2017-01-15T10:38:06Z</time>
      </trkpt>
      <trkpt lat="45.3133" lon="5.87324">
        <ele>1287.4460449219</ele>
        <time>2017-01-15T10:38:13Z</time>
      </trkpt>
      <trkpt lat="45.31332" lon="5.87312">
        <ele>1289.4460449219</ele>
        <time>2017-01-15T10:38:20Z</time>
      </trkpt>
      <trkpt lat="45.31335" lon="5.87301">
        <ele>1290.4460449219</ele>
        <time>2017-01-15T10:38:30Z</time>
      </trkpt>
      <trkpt lat="45.31335" lon="5.87289">
        <ele>1294.4460449219</ele>
        <time>2017-01-15T10:38:41Z</time>
      </trkpt>
      <trkpt lat="45.3134" lon="5.87278">
        <ele>1298.4460449219</ele>
        <time>2017-01-15T10:38:48Z</time>
      </trkpt>
      <trkpt lat="45.3134" lon="5.87267">
        <ele>1299.4460449219</ele>
        <time>2017-01-15T10:38:58Z</time>
      </trkpt>
      <trkpt lat="45.31342" lon="5.87279">
        <ele>1310.4460449219</ele>
        <time>2017-01-15T10:40:23Z</time>
      </trkpt>
      <trkpt lat="45.31347" lon="5.87311">
        <ele>1302.4460449219</ele>
        <time>2017-01-15T10:40:28Z</time>
      </trkpt>
      <trkpt lat="45.3134" lon="5.8737">
        <ele>1293.4460449219</ele>
        <time>2017-01-15T10:40:35Z</time>
      </trkpt>
      <trkpt lat="45.31339" lon="5.87381">
        <ele>1294.4460449219</ele>
        <time>2017-01-15T10:40:50Z</time>
      </trkpt>
      <trkpt lat="45.31334" lon="5.87388">
        <ele>1291.4460449219</ele>
        <time>2017-01-15T10:40:53Z</time>
      </trkpt>
      <trkpt lat="45.31333" lon="5.87403">
        <ele>1290.4460449219</ele>
        <time>2017-01-15T10:41:40Z</time>
      </trkpt>
      <trkpt lat="45.31345" lon="5.87445">
        <ele>1279.4460449219</ele>
        <time>2017-01-15T10:41:46Z</time>
      </trkpt>
      <trkpt lat="45.3135" lon="5.8746">
        <ele>1278.4460449219</ele>
        <time>2017-01-15T10:41:48Z</time>
      </trkpt>
      <trkpt lat="45.31345" lon="5.87471">
        <ele>1274.4460449219</ele>
        <time>2017-01-15T10:41:50Z</time>
      </trkpt>
      <trkpt lat="45.31346" lon="5.87483">
        <ele>1269.4460449219</ele>
        <time>2017-01-15T10:41:54Z</time>
      </trkpt>
      <trkpt lat="45.31354" lon="5.8749">
        <ele>1264.4460449219</ele>
        <time>2017-01-15T10:42:06Z</time>
      </trkpt>
      <trkpt lat="45.31361" lon="5.87553">
        <ele>1240.4460449219</ele>
        <time>2017-01-15T10:42:11Z</time>
      </trkpt>
      <trkpt lat="45.3137" lon="5.87622">
        <ele>1219.4460449219</ele>
        <time>2017-01-15T10:42:16Z</time>
      </trkpt>
      <trkpt lat="45.31377" lon="5.87694">
        <ele>1196.4460449219</ele>
        <time>2017-01-15T10:42:21Z</time>
      </trkpt>
      <trkpt lat="45.31381" lon="5.87754">
        <ele>1179.4460449219</ele>
        <time>2017-01-15T10:42:26Z</time>
      </trkpt>
      <trkpt lat="45.31374" lon="5.87786">
        <ele>1171.4460449219</ele>
        <time>2017-01-15T10:42:34Z</time>
      </trkpt>
      <trkpt lat="45.3137" lon="5.87807">
        <ele>1169.4460449219</ele>
        <time>2017-01-15T10:43:01Z</time>
      </trkpt>
      <trkpt lat="45.31385" lon="5.8785">
        <ele>1156.4460449219</ele>
        <time>2017-01-15T10:43:07Z</time>
      </trkpt>
      <trkpt lat="45.31382" lon="5.8786">
        <ele>1154.4460449219</ele>
        <time>2017-01-15T10:43:13Z</time>
      </trkpt>
      <trkpt lat="45.31392" lon="5.87894">
        <ele>1143.4470214844</ele>
        <time>2017-01-15T10:43:18Z</time>
      </trkpt>
      <trkpt lat="45.31416" lon="5.87946">
        <ele>1138.4470214844</ele>
        <time>2017-01-15T10:43:23Z</time>
      </trkpt>
      <trkpt lat="45.31424" lon="5.8795">
        <ele>1137.4470214844</ele>
        <time>2017-01-15T10:43:24Z</time>
      </trkpt>
      <trkpt lat="45.31461" lon="5.87995">
        <ele>1119.4470214844</ele>
        <time>2017-01-15T10:43:30Z</time>
      </trkpt>
      <trkpt lat="45.31472" lon="5.88001">
        <ele>1110.4470214844</ele>
        <time>2017-01-15T10:43:32Z</time>
      </trkpt>
      <trkpt lat="45.3148" lon="5.88027">
        <ele>1098.4470214844</ele>
        <time>2017-01-15T10:43:37Z</time>
      </trkpt>
      <trkpt lat="45.31489" lon="5.88044">
        <ele>1090.4470214844</ele>
        <time>2017-01-15T10:43:44Z</time>
      </trkpt>
      <trkpt lat="45.31498" lon="5.88044">
        <ele>1085.4470214844</ele>
        <time>2017-01-15T10:43:49Z</time>
      </trkpt>
      <trkpt lat="45.31513" lon="5.88041">
        <ele>1081.4470214844</ele>
        <time>2017-01-15T10:43:55Z</time>
      </trkpt>
      <trkpt lat="45.31536" lon="5.88049">
        <ele>1074.4470214844</ele>
        <time>2017-01-15T10:44:00Z</time>
      </trkpt>
      <trkpt lat="45.31558" lon="5.88117">
        <ele>1067.4470214844</ele>
        <time>2017-01-15T10:44:05Z</time>
      </trkpt>
      <trkpt lat="45.31565" lon="5.882">
        <ele>1049.4470214844</ele>
        <time>2017-01-15T10:44:10Z</time>
      </trkpt>
      <trkpt lat="45.31553" lon="5.88263">
        <ele>1037.4470214844</ele>
        <time>2017-01-15T10:44:15Z</time>
      </trkpt>
      <trkpt lat="45.31525" lon="5.8829">
        <ele>1029.4470214844</ele>
        <time>2017-01-15T10:44:20Z</time>
      </trkpt>
      <trkpt lat="45.31518" lon="5.88313">
        <ele>1025.4470214844</ele>
        <time>2017-01-15T10:44:26Z</time>
      </trkpt>
      <trkpt lat="45.31519" lon="5.88342">
        <ele>1020.4470214844</ele>
        <time>2017-01-15T10:44:31Z</time>
      </trkpt>
      <trkpt lat="45.31498" lon="5.88398">
        <ele>1009.4470214844</ele>
        <time>2017-01-15T10:44:36Z</time>
      </trkpt>
      <trkpt lat="45.31463" lon="5.88451">
        <ele>998.44702148438</ele>
        <time>2017-01-15T10:44:41Z</time>
      </trkpt>
      <trkpt lat="45.31449" lon="5.88504">
        <ele>989.44702148438</ele>
        <time>2017-01-15T10:44:46Z</time>
      </trkpt>
      <trkpt lat="45.3142" lon="5.8854">
        <ele>981.44702148438</ele>
        <time>2017-01-15T10:44:51Z</time>
      </trkpt>
      <trkpt lat="45.31397" lon="5.88565">
        <ele>977.44702148438</ele>
        <time>2017-01-15T10:44:57Z</time>
      </trkpt>
      <trkpt lat="45.31382" lon="5.88556">
        <ele>976.44702148438</ele>
        <time>2017-01-15T10:45:03Z</time>
      </trkpt>
      <trkpt lat="45.31376" lon="5.88541">
        <ele>975.44702148438</ele>
        <time>2017-01-15T10:45:08Z</time>
      </trkpt>
      <trkpt lat="45.31369" lon="5.88522">
        <ele>976.44702148438</ele>
        <time>2017-01-15T10:45:16Z</time>
      </trkpt>
      <trkpt lat="45.31365" lon="5.88513">
        <ele>978.44702148438</ele>
        <time>2017-01-15T10:45:23Z</time>
      </trkpt>
      <trkpt lat="45.31368" lon="5.88524">
        <ele>977.44702148438</ele>
        <time>2017-01-15T10:46:16Z</time>
      </trkpt>
      <trkpt lat="45.31375" lon="5.88543">
        <ele>976.44702148438</ele>
        <time>2017-01-15T10:46:23Z</time>
      </trkpt>
      <trkpt lat="45.31388" lon="5.88562">
        <ele>976.44702148438</ele>
        <time>2017-01-15T10:46:30Z</time>
      </trkpt>
      <trkpt lat="45.31398" lon="5.88583">
        <ele>974.44702148438</ele>
        <time>2017-01-15T10:46:36Z</time>
      </trkpt>
      <trkpt lat="45.31402" lon="5.88604">
        <ele>977.44799804688</ele>
        <time>2017-01-15T10:47:01Z</time>
      </trkpt>
      <trkpt lat="45.31409" lon="5.88604">
        <ele>976.44799804688</ele>
        <time>2017-01-15T10:47:11Z</time>
      </trkpt>
    </trkseg>
  </trk>
</gpx>